AAL94 KJFK-LEMD
Flight info
| Callsign | AAL94 |
|---|---|
| Flight time | 6h 19m |
| Altitude | 39000 |
| Route | SHIPP Y487 ISLES DCT JENYY DCT DOVEY/M083F390 DCT 42N060W 43N050W 44N040W 44N030W/M083F410 4330N02000W DCT ARMED/N0480F410 DCT EPOPO DCT ADORO/N0488F400 L155 ZMR |
| Aircraft | B772/H-SDE2E3FGHIJ5LORVWXY/LB1D1 |
Departure
| Time | 2026-05-04 21:03 |
|---|---|
| Airport | John F. Kennedy International Airport (KJFK) |
Arrival
| Time | 2026-05-05 03:22 |
|---|---|
| Airport | Adolfo Suárez Madrid–Barajas Airport (LEMD) |
| Time | Latitude | Longitude | Altitude | Speed | Heading |
|---|---|---|---|---|---|
| 2026-05-04 19:48 | 40.64966 | -73.79521 | 20 ft | 0 kts | 165° |
| 2026-05-04 20:37 | 40.64978 | -73.79525 | 21 ft | 4 kts | 167° |
| 2026-05-04 20:38 | 40.65004 | -73.79531 | 22 ft | 4 kts | 174° |
| 2026-05-04 20:38 | 40.65030 | -73.79533 | 21 ft | 4 kts | 186° |
| 2026-05-04 20:38 | 40.65055 | -73.79525 | 22 ft | 4 kts | 211° |
| 2026-05-04 20:38 | 40.65070 | -73.79509 | 22 ft | 1 kts | 240° |
| 2026-05-04 20:39 | 40.65070 | -73.79508 | 22 ft | 0 kts | 240° |
| 2026-05-04 20:46 | 40.65070 | -73.79509 | 22 ft | 0 kts | 240° |
| 2026-05-04 20:46 | 40.65069 | -73.79509 | 22 ft | 0 kts | 240° |
| 2026-05-04 20:47 | 40.65069 | -73.79510 | 23 ft | 0 kts | 240° |
| 2026-05-04 20:47 | 40.65069 | -73.79511 | 23 ft | 0 kts | 241° |
| 2026-05-04 20:47 | 40.65067 | -73.79515 | 23 ft | 1 kts | 241° |
| 2026-05-04 20:48 | 40.65066 | -73.79517 | 24 ft | 0 kts | 240° |
| 2026-05-04 20:48 | 40.65066 | -73.79518 | 24 ft | 0 kts | 240° |
| 2026-05-04 20:48 | 40.65065 | -73.79519 | 24 ft | 0 kts | 240° |
| 2026-05-04 20:48 | 40.65065 | -73.79520 | 24 ft | 0 kts | 240° |
| 2026-05-04 20:49 | 40.65064 | -73.79521 | 24 ft | 0 kts | 240° |
| 2026-05-04 20:50 | 40.65064 | -73.79522 | 24 ft | 0 kts | 240° |
| 2026-05-04 20:50 | 40.65064 | -73.79523 | 24 ft | 0 kts | 240° |
| 2026-05-04 20:52 | 40.65063 | -73.79523 | 20 ft | 0 kts | 240° |
| 2026-05-04 20:52 | 40.65063 | -73.79524 | 20 ft | 0 kts | 240° |
| 2026-05-04 20:52 | 40.65060 | -73.79530 | 20 ft | 5 kts | 240° |
| 2026-05-04 20:53 | 40.65050 | -73.79570 | 20 ft | 1 kts | 277° |
| 2026-05-04 20:53 | 40.65051 | -73.79572 | 20 ft | 0 kts | 284° |
| 2026-05-04 20:54 | 40.65066 | -73.79589 | 22 ft | 4 kts | 349° |
| 2026-05-04 20:54 | 40.65087 | -73.79570 | 22 ft | 6 kts | 42° |
| 2026-05-04 20:54 | 40.65126 | -73.79494 | 22 ft | 14 kts | 60° |
| 2026-05-04 20:55 | 40.65187 | -73.79355 | 20 ft | 19 kts | 62° |
| 2026-05-04 20:55 | 40.65198 | -73.79182 | 20 ft | 19 kts | 104° |
| 2026-05-04 20:55 | 40.65158 | -73.79012 | 21 ft | 19 kts | 108° |
| 2026-05-04 20:55 | 40.65139 | -73.78839 | 20 ft | 19 kts | 89° |
| 2026-05-04 20:56 | 40.65180 | -73.78671 | 23 ft | 19 kts | 60° |
| 2026-05-04 20:56 | 40.65248 | -73.78511 | 20 ft | 21 kts | 66° |
| 2026-05-04 20:56 | 40.65241 | -73.78326 | 21 ft | 21 kts | 116° |
| 2026-05-04 20:56 | 40.65166 | -73.78161 | 20 ft | 19 kts | 121° |
| 2026-05-04 20:57 | 40.65119 | -73.78043 | 20 ft | 10 kts | 97° |
| 2026-05-04 20:57 | 40.65145 | -73.77984 | 21 ft | 6 kts | 40° |
| 2026-05-04 20:57 | 40.65184 | -73.77950 | 21 ft | 11 kts | 32° |
| 2026-05-04 20:57 | 40.65288 | -73.77866 | 24 ft | 18 kts | 29° |
| 2026-05-04 20:58 | 40.65333 | -73.77780 | 21 ft | 11 kts | 106° |
| 2026-05-04 20:58 | 40.65299 | -73.77690 | 20 ft | 11 kts | 119° |
| 2026-05-04 20:58 | 40.65260 | -73.77603 | 20 ft | 11 kts | 121° |
| 2026-05-04 20:58 | 40.65220 | -73.77516 | 20 ft | 11 kts | 121° |
| 2026-05-04 20:59 | 40.65180 | -73.77428 | 20 ft | 11 kts | 121° |
| 2026-05-04 20:59 | 40.65141 | -73.77341 | 20 ft | 11 kts | 120° |
| 2026-05-04 20:59 | 40.65102 | -73.77253 | 21 ft | 11 kts | 121° |
| 2026-05-04 20:59 | 40.65062 | -73.77166 | 21 ft | 11 kts | 121° |
| 2026-05-04 21:00 | 40.65022 | -73.77078 | 21 ft | 11 kts | 121° |
| 2026-05-04 21:00 | 40.64983 | -73.76991 | 21 ft | 11 kts | 121° |
| 2026-05-04 21:00 | 40.64943 | -73.76904 | 21 ft | 11 kts | 121° |
| 2026-05-04 21:00 | 40.64903 | -73.76817 | 21 ft | 11 kts | 121° |
| 2026-05-04 21:01 | 40.64878 | -73.76725 | 21 ft | 11 kts | 76° |
| 2026-05-04 21:01 | 40.64932 | -73.76656 | 21 ft | 11 kts | 32° |
| 2026-05-04 21:01 | 40.64999 | -73.76605 | 20 ft | 11 kts | 30° |
| 2026-05-04 21:01 | 40.65066 | -73.76554 | 20 ft | 11 kts | 30° |
| 2026-05-04 21:02 | 40.65090 | -73.76468 | 20 ft | 11 kts | 106° |
| 2026-05-04 21:02 | 40.65053 | -73.76380 | 20 ft | 11 kts | 134° |
| 2026-05-04 21:02 | 40.65008 | -73.76372 | 20 ft | 6 kts | 194° |
| 2026-05-04 21:02 | 40.64960 | -73.76406 | 20 ft | 18 kts | 211° |
| 2026-05-04 21:03 | 40.64612 | -73.76672 | 23 ft | 106 kts | 212° |
| 2026-05-04 21:03 | 40.63743 | -73.77367 | 194 ft | 174 kts | 210° |
| 2026-05-04 21:03 | 40.62742 | -73.78263 | 1508 ft | 168 kts | 217° |
| 2026-05-04 21:03 | 40.61755 | -73.79188 | 2493 ft | 186 kts | 217° |
| 2026-05-04 21:04 | 40.60554 | -73.79978 | 2853 ft | 206 kts | 199° |
| 2026-05-04 21:04 | 40.59116 | -73.80087 | 3558 ft | 215 kts | 174° |
| 2026-05-04 21:04 | 40.57702 | -73.79232 | 4064 ft | 236 kts | 145° |
| 2026-05-04 21:04 | 40.56662 | -73.77439 | 4424 ft | 261 kts | 114° |
| 2026-05-04 21:05 | 40.56293 | -73.75115 | 5117 ft | 262 kts | 96° |
| 2026-05-04 21:05 | 40.56170 | -73.72646 | 5576 ft | 278 kts | 96° |
| 2026-05-04 21:05 | 40.55998 | -73.70075 | 6192 ft | 286 kts | 98° |
| 2026-05-04 21:05 | 40.55661 | -73.67491 | 6937 ft | 287 kts | 105° |
| 2026-05-04 21:06 | 40.55040 | -73.64953 | 7531 ft | 294 kts | 115° |
| 2026-05-04 21:06 | 40.54157 | -73.62549 | 8220 ft | 299 kts | 121° |
| 2026-05-04 21:06 | 40.53108 | -73.60160 | 8930 ft | 304 kts | 124° |
| 2026-05-04 21:06 | 40.51959 | -73.57813 | 9704 ft | 306 kts | 127° |
| 2026-05-04 21:07 | 40.50741 | -73.55497 | 10346 ft | 313 kts | 128° |
| 2026-05-04 21:07 | 40.49416 | -73.53092 | 10562 ft | 337 kts | 129° |
| 2026-05-04 21:07 | 40.47962 | -73.50527 | 10746 ft | 362 kts | 129° |
| 2026-05-04 21:07 | 40.46398 | -73.47811 | 11183 ft | 379 kts | 129° |
| 2026-05-04 21:08 | 40.44774 | -73.45011 | 11873 ft | 389 kts | 129° |
| 2026-05-04 21:08 | 40.43115 | -73.42162 | 12691 ft | 395 kts | 129° |
| 2026-05-04 21:08 | 40.41429 | -73.39272 | 13578 ft | 400 kts | 129° |
| 2026-05-04 21:08 | 40.39746 | -73.36391 | 14382 ft | 405 kts | 129° |
| 2026-05-04 21:09 | 40.38024 | -73.33448 | 15220 ft | 409 kts | 129° |
| 2026-05-04 21:09 | 40.36281 | -73.30469 | 16013 ft | 414 kts | 129° |
| 2026-05-04 21:09 | 40.34516 | -73.27459 | 16791 ft | 419 kts | 129° |
| 2026-05-04 21:09 | 40.32740 | -73.24394 | 17579 ft | 425 kts | 127° |
| 2026-05-04 21:10 | 40.31087 | -73.21147 | 18336 ft | 430 kts | 124° |
| 2026-05-04 21:10 | 40.29458 | -73.17823 | 19008 ft | 436 kts | 124° |
| 2026-05-04 21:10 | 40.27808 | -73.14457 | 19712 ft | 441 kts | 124° |
| 2026-05-04 21:10 | 40.26427 | -73.11666 | 20270 ft | 445 kts | 124° |
| 2026-05-04 21:11 | 40.24729 | -73.08254 | 20960 ft | 450 kts | 124° |
| 2026-05-04 21:11 | 40.23010 | -73.04809 | 21634 ft | 455 kts | 123° |
| 2026-05-04 21:11 | 40.21266 | -73.01317 | 22337 ft | 460 kts | 123° |
| 2026-05-04 21:11 | 40.19507 | -72.97793 | 23017 ft | 465 kts | 123° |
| 2026-05-04 21:12 | 40.17721 | -72.94218 | 23619 ft | 469 kts | 123° |
| 2026-05-04 21:12 | 40.15926 | -72.90629 | 24167 ft | 474 kts | 123° |
| 2026-05-04 21:12 | 40.14116 | -72.87012 | 24710 ft | 477 kts | 123° |
| 2026-05-04 21:12 | 40.12314 | -72.83414 | 25246 ft | 480 kts | 123° |
| 2026-05-04 21:13 | 40.10476 | -72.79753 | 25757 ft | 483 kts | 123° |
| 2026-05-04 21:13 | 40.08676 | -72.76035 | 26235 ft | 486 kts | 121° |
| 2026-05-04 21:13 | 40.06951 | -72.72223 | 26691 ft | 490 kts | 119° |
| 2026-05-04 21:13 | 40.05240 | -72.68355 | 27188 ft | 493 kts | 119° |
| 2026-05-04 21:14 | 40.03509 | -72.64454 | 27628 ft | 495 kts | 119° |
| 2026-05-04 21:14 | 40.01778 | -72.60602 | 28058 ft | 498 kts | 120° |
| 2026-05-04 21:14 | 40.00004 | -72.56695 | 28466 ft | 501 kts | 120° |
| 2026-05-04 21:14 | 39.98208 | -72.52761 | 28858 ft | 504 kts | 120° |
| 2026-05-04 21:15 | 39.96404 | -72.48809 | 29240 ft | 507 kts | 120° |
| 2026-05-04 21:15 | 39.94627 | -72.44827 | 29610 ft | 510 kts | 119° |
| 2026-05-04 21:15 | 39.92882 | -72.40846 | 29952 ft | 512 kts | 118° |
| 2026-05-04 21:15 | 39.91120 | -72.36808 | 30239 ft | 514 kts | 118° |
| 2026-05-04 21:16 | 39.89341 | -72.32753 | 30505 ft | 516 kts | 119° |
| 2026-05-04 21:16 | 39.87546 | -72.28677 | 30801 ft | 517 kts | 119° |
| 2026-05-04 21:16 | 39.85754 | -72.24613 | 31074 ft | 518 kts | 119° |
| 2026-05-04 21:16 | 39.83958 | -72.20548 | 31315 ft | 519 kts | 119° |
| 2026-05-04 21:17 | 39.82176 | -72.16519 | 31546 ft | 520 kts | 119° |
| 2026-05-04 21:17 | 39.80369 | -72.12437 | 31830 ft | 520 kts | 120° |
| 2026-05-04 21:17 | 39.78562 | -72.08360 | 32155 ft | 519 kts | 120° |
| 2026-05-04 21:17 | 39.76761 | -72.04298 | 32490 ft | 517 kts | 120° |
| 2026-05-04 21:18 | 39.74984 | -72.00303 | 32807 ft | 517 kts | 120° |
| 2026-05-04 21:18 | 39.73170 | -71.96274 | 33094 ft | 516 kts | 121° |
| 2026-05-04 21:18 | 39.71296 | -71.92227 | 33388 ft | 516 kts | 122° |
| 2026-05-04 21:18 | 39.69453 | -71.88301 | 33706 ft | 515 kts | 122° |
| 2026-05-04 21:19 | 39.67563 | -71.84290 | 34035 ft | 514 kts | 122° |
| 2026-05-04 21:19 | 39.65727 | -71.80384 | 34274 ft | 514 kts | 122° |
| 2026-05-04 21:19 | 39.63866 | -71.76418 | 34475 ft | 515 kts | 122° |
| 2026-05-04 21:19 | 39.61980 | -71.72390 | 34660 ft | 516 kts | 123° |
| 2026-05-04 21:20 | 39.60141 | -71.68459 | 34870 ft | 516 kts | 123° |
| 2026-05-04 21:20 | 39.58279 | -71.64483 | 35091 ft | 517 kts | 123° |
| 2026-05-04 21:20 | 39.56411 | -71.60500 | 35302 ft | 517 kts | 123° |
| 2026-05-04 21:20 | 39.54539 | -71.56512 | 35511 ft | 518 kts | 123° |
| 2026-05-04 21:21 | 39.52660 | -71.52514 | 35720 ft | 518 kts | 123° |
| 2026-05-04 21:21 | 39.50781 | -71.48521 | 35928 ft | 519 kts | 124° |
| 2026-05-04 21:21 | 39.48907 | -71.44541 | 36144 ft | 519 kts | 124° |
| 2026-05-04 21:21 | 39.47022 | -71.40546 | 36356 ft | 519 kts | 124° |
| 2026-05-04 21:22 | 39.45201 | -71.36518 | 36492 ft | 520 kts | 117° |
| 2026-05-04 21:22 | 39.44000 | -71.32079 | 36549 ft | 526 kts | 102° |
| 2026-05-04 21:22 | 39.43589 | -71.27363 | 36732 ft | 527 kts | 90° |
| 2026-05-04 21:22 | 39.43962 | -71.22666 | 36920 ft | 523 kts | 76° |
| 2026-05-04 21:23 | 39.44788 | -71.18080 | 37036 ft | 525 kts | 75° |
| 2026-05-04 21:23 | 39.45640 | -71.13530 | 37167 ft | 527 kts | 75° |
| 2026-05-04 21:23 | 39.46500 | -71.08923 | 37364 ft | 527 kts | 75° |
| 2026-05-04 21:23 | 39.47343 | -71.04305 | 37564 ft | 527 kts | 76° |
| 2026-05-04 21:24 | 39.48166 | -70.99675 | 37744 ft | 528 kts | 76° |
| 2026-05-04 21:24 | 39.48976 | -70.95017 | 37931 ft | 529 kts | 76° |
| 2026-05-04 21:24 | 39.49772 | -70.90369 | 38089 ft | 529 kts | 77° |
| 2026-05-04 21:24 | 39.50564 | -70.85702 | 38272 ft | 530 kts | 77° |
| 2026-05-04 21:25 | 39.51353 | -70.81041 | 38437 ft | 530 kts | 77° |
| 2026-05-04 21:25 | 39.52142 | -70.76367 | 38601 ft | 531 kts | 77° |
| 2026-05-04 21:25 | 39.52922 | -70.71746 | 38752 ft | 531 kts | 77° |
| 2026-05-04 21:25 | 39.53709 | -70.67071 | 38900 ft | 531 kts | 77° |
| 2026-05-04 21:26 | 39.55289 | -70.57678 | 39029 ft | 533 kts | 77° |
| 2026-05-04 21:26 | 39.56859 | -70.48293 | 39051 ft | 533 kts | 77° |
| 2026-05-04 21:27 | 39.58429 | -70.38897 | 39064 ft | 532 kts | 77° |
| 2026-05-04 21:27 | 39.59980 | -70.29633 | 39066 ft | 532 kts | 77° |
| 2026-05-04 21:28 | 39.61527 | -70.20254 | 39062 ft | 531 kts | 77° |
| 2026-05-04 21:28 | 39.63061 | -70.10866 | 39069 ft | 531 kts | 77° |
| 2026-05-04 21:29 | 39.64589 | -70.01471 | 39069 ft | 531 kts | 77° |
| 2026-05-04 21:29 | 39.66109 | -69.92082 | 39071 ft | 531 kts | 77° |
| 2026-05-04 21:30 | 39.67623 | -69.82692 | 39074 ft | 531 kts | 78° |
| 2026-05-04 21:30 | 39.69119 | -69.73356 | 39074 ft | 531 kts | 78° |
| 2026-05-04 21:31 | 39.71367 | -69.59234 | 39073 ft | 532 kts | 78° |
| 2026-05-04 21:32 | 39.72856 | -69.49815 | 39073 ft | 532 kts | 78° |
| 2026-05-04 21:32 | 39.74337 | -69.40392 | 39075 ft | 532 kts | 78° |
| 2026-05-04 21:33 | 39.75803 | -69.31014 | 39081 ft | 532 kts | 78° |
| 2026-05-04 21:33 | 39.77271 | -69.21571 | 39081 ft | 532 kts | 78° |
| 2026-05-04 21:34 | 39.78731 | -69.12120 | 39085 ft | 533 kts | 79° |
| 2026-05-04 21:34 | 39.80184 | -69.02669 | 39083 ft | 533 kts | 79° |
| 2026-05-04 21:35 | 39.81622 | -68.93263 | 39083 ft | 533 kts | 79° |
| 2026-05-04 21:35 | 39.83061 | -68.83790 | 39087 ft | 533 kts | 79° |
| 2026-05-04 21:36 | 39.84495 | -68.74298 | 39087 ft | 533 kts | 79° |
| 2026-05-04 21:36 | 39.85909 | -68.64882 | 39089 ft | 533 kts | 79° |
| 2026-05-04 21:37 | 39.87325 | -68.55397 | 39089 ft | 534 kts | 80° |
| 2026-05-04 21:37 | 39.88734 | -68.45905 | 39086 ft | 534 kts | 80° |
| 2026-05-04 21:38 | 39.90137 | -68.36398 | 39089 ft | 534 kts | 80° |
| 2026-05-04 21:38 | 39.91532 | -68.26892 | 39094 ft | 534 kts | 80° |
| 2026-05-04 21:39 | 39.93018 | -68.17410 | 39084 ft | 533 kts | 72° |
| 2026-05-04 21:39 | 39.95857 | -68.10339 | 39097 ft | 530 kts | 50° |
| 2026-05-04 21:39 | 39.98340 | -68.06832 | 39102 ft | 526 kts | 36° |
| 2026-05-04 21:40 | 40.01265 | -68.04021 | 39099 ft | 520 kts | 31° |
| 2026-05-04 21:40 | 40.07270 | -67.98669 | 39100 ft | 523 kts | 30° |
| 2026-05-04 21:41 | 40.13267 | -67.93246 | 39094 ft | 526 kts | 31° |
| 2026-05-04 21:41 | 40.19255 | -67.87701 | 39099 ft | 528 kts | 32° |
| 2026-05-04 21:42 | 40.25205 | -67.82137 | 39089 ft | 530 kts | 32° |
| 2026-05-04 21:42 | 40.31208 | -67.76511 | 39086 ft | 530 kts | 32° |
| 2026-05-04 21:43 | 40.37212 | -67.70881 | 39083 ft | 530 kts | 32° |
| 2026-05-04 21:43 | 40.43186 | -67.65271 | 39078 ft | 530 kts | 32° |
| 2026-05-04 21:44 | 40.49172 | -67.59636 | 39072 ft | 529 kts | 32° |
| 2026-05-04 21:44 | 40.55143 | -67.54002 | 39061 ft | 528 kts | 32° |
| 2026-05-04 21:45 | 40.61117 | -67.48353 | 39076 ft | 527 kts | 32° |
| 2026-05-04 21:45 | 40.67075 | -67.42707 | 39073 ft | 526 kts | 32° |
| 2026-05-04 21:46 | 40.72982 | -67.37097 | 39062 ft | 526 kts | 32° |
| 2026-05-04 21:46 | 40.78919 | -67.31445 | 39064 ft | 526 kts | 32° |
| 2026-05-04 21:47 | 40.84866 | -67.25770 | 39059 ft | 526 kts | 32° |
| 2026-05-04 21:47 | 40.90808 | -67.20087 | 39058 ft | 527 kts | 32° |
| 2026-05-04 21:48 | 40.96747 | -67.14394 | 39058 ft | 527 kts | 32° |
| 2026-05-04 21:48 | 41.02688 | -67.08686 | 39055 ft | 527 kts | 32° |
| 2026-05-04 21:49 | 41.08467 | -67.02806 | 39043 ft | 531 kts | 43° |
| 2026-05-04 21:49 | 41.10799 | -66.98979 | 39053 ft | 535 kts | 56° |
| 2026-05-04 21:49 | 41.12526 | -66.94610 | 39054 ft | 537 kts | 69° |
| 2026-05-04 21:50 | 41.14280 | -66.84999 | 39051 ft | 535 kts | 80° |
| 2026-05-04 21:50 | 41.15660 | -66.75274 | 39049 ft | 537 kts | 80° |
| 2026-05-04 21:51 | 41.17089 | -66.65576 | 39050 ft | 539 kts | 79° |
| 2026-05-04 21:51 | 41.18590 | -66.55798 | 39049 ft | 541 kts | 79° |
| 2026-05-04 21:52 | 41.20106 | -66.46009 | 39051 ft | 542 kts | 79° |
| 2026-05-04 21:52 | 41.21618 | -66.36181 | 39055 ft | 543 kts | 79° |
| 2026-05-04 21:53 | 41.23115 | -66.26343 | 39050 ft | 543 kts | 80° |
| 2026-05-04 21:53 | 41.24593 | -66.16560 | 39053 ft | 543 kts | 80° |
| 2026-05-04 21:54 | 41.26069 | -66.06729 | 39055 ft | 543 kts | 80° |
| 2026-05-04 21:54 | 41.27538 | -65.96892 | 39049 ft | 542 kts | 80° |
| 2026-05-04 21:55 | 41.28998 | -65.87048 | 39051 ft | 542 kts | 80° |
| 2026-05-04 21:55 | 41.30448 | -65.77215 | 39051 ft | 542 kts | 80° |
| 2026-05-04 21:56 | 41.31892 | -65.67366 | 39049 ft | 542 kts | 80° |
| 2026-05-04 21:56 | 41.33310 | -65.57630 | 39058 ft | 542 kts | 81° |
| 2026-05-04 21:57 | 41.34738 | -65.47759 | 39052 ft | 542 kts | 81° |
| 2026-05-04 21:57 | 41.36157 | -65.37893 | 39056 ft | 543 kts | 81° |
| 2026-05-04 21:58 | 41.37567 | -65.28023 | 39057 ft | 543 kts | 81° |
| 2026-05-04 21:58 | 41.38972 | -65.18129 | 39054 ft | 543 kts | 81° |
| 2026-05-04 21:59 | 41.40370 | -65.08217 | 39056 ft | 544 kts | 81° |
| 2026-05-04 21:59 | 41.41752 | -64.98357 | 39058 ft | 545 kts | 81° |
| 2026-05-04 22:00 | 41.43133 | -64.88437 | 39057 ft | 545 kts | 81° |
| 2026-05-04 22:00 | 41.44509 | -64.78486 | 39055 ft | 546 kts | 81° |
| 2026-05-04 22:01 | 41.45877 | -64.68529 | 39069 ft | 546 kts | 81° |
| 2026-05-04 22:01 | 41.47231 | -64.58607 | 39076 ft | 547 kts | 81° |
| 2026-05-04 22:02 | 41.48586 | -64.48606 | 39069 ft | 547 kts | 81° |
| 2026-05-04 22:02 | 41.49934 | -64.38595 | 39054 ft | 548 kts | 81° |
| 2026-05-04 22:03 | 41.51271 | -64.28595 | 39059 ft | 548 kts | 82° |
| 2026-05-04 22:03 | 41.52601 | -64.18580 | 39067 ft | 548 kts | 82° |
| 2026-05-04 22:04 | 41.53913 | -64.08632 | 39066 ft | 547 kts | 82° |
| 2026-05-04 22:04 | 41.55227 | -63.98597 | 39055 ft | 547 kts | 82° |
| 2026-05-04 22:05 | 41.56530 | -63.88576 | 39061 ft | 547 kts | 82° |
| 2026-05-04 22:05 | 41.57823 | -63.78560 | 39061 ft | 547 kts | 82° |
| 2026-05-04 22:06 | 41.59102 | -63.68579 | 39057 ft | 547 kts | 82° |
| 2026-05-04 22:06 | 41.60379 | -63.58543 | 39062 ft | 547 kts | 82° |
| 2026-05-04 22:07 | 41.61647 | -63.48506 | 39059 ft | 548 kts | 83° |
| 2026-05-04 22:07 | 41.62908 | -63.38458 | 39063 ft | 548 kts | 83° |
| 2026-05-04 22:08 | 41.64152 | -63.28464 | 39056 ft | 548 kts | 83° |
| 2026-05-04 22:08 | 41.65398 | -63.18380 | 39051 ft | 548 kts | 83° |
| 2026-05-04 22:09 | 41.66635 | -63.08300 | 39053 ft | 549 kts | 83° |
| 2026-05-04 22:09 | 41.67855 | -62.98279 | 39052 ft | 549 kts | 83° |
| 2026-05-04 22:10 | 41.69075 | -62.88184 | 39052 ft | 549 kts | 83° |
| 2026-05-04 22:10 | 41.70287 | -62.78070 | 39052 ft | 550 kts | 84° |
| 2026-05-04 22:11 | 41.71491 | -62.67957 | 39051 ft | 550 kts | 84° |
| 2026-05-04 22:11 | 41.72685 | -62.57842 | 39054 ft | 550 kts | 84° |
| 2026-05-04 22:12 | 41.73865 | -62.47766 | 39053 ft | 551 kts | 84° |
| 2026-05-04 22:12 | 41.75046 | -62.37611 | 39048 ft | 551 kts | 84° |
| 2026-05-04 22:13 | 41.76216 | -62.27460 | 39049 ft | 552 kts | 84° |
| 2026-05-04 22:13 | 41.77378 | -62.17301 | 39049 ft | 552 kts | 84° |
| 2026-05-04 22:14 | 41.78533 | -62.07124 | 39044 ft | 552 kts | 84° |
| 2026-05-04 22:14 | 41.79679 | -61.96939 | 39046 ft | 553 kts | 85° |
| 2026-05-04 22:15 | 41.80817 | -61.86746 | 39054 ft | 553 kts | 85° |
| 2026-05-04 22:15 | 41.81939 | -61.76609 | 39049 ft | 553 kts | 85° |
| 2026-05-04 22:16 | 41.83059 | -61.66405 | 39058 ft | 553 kts | 85° |
| 2026-05-04 22:16 | 41.84172 | -61.56182 | 39049 ft | 553 kts | 85° |
| 2026-05-04 22:17 | 41.85277 | -61.45943 | 39047 ft | 554 kts | 85° |
| 2026-05-04 22:17 | 41.86372 | -61.35712 | 39049 ft | 553 kts | 85° |
| 2026-05-04 22:18 | 41.87450 | -61.25547 | 39048 ft | 553 kts | 85° |
| 2026-05-04 22:18 | 41.88526 | -61.15309 | 39050 ft | 553 kts | 85° |
| 2026-05-04 22:19 | 41.89593 | -61.05080 | 39051 ft | 553 kts | 85° |
| 2026-05-04 22:19 | 41.90650 | -60.94844 | 39051 ft | 553 kts | 86° |
| 2026-05-04 22:20 | 41.91693 | -60.84657 | 39053 ft | 553 kts | 86° |
| 2026-05-04 22:20 | 41.92733 | -60.74413 | 39052 ft | 553 kts | 86° |
| 2026-05-04 22:21 | 41.93764 | -60.64158 | 39051 ft | 553 kts | 86° |
| 2026-05-04 22:21 | 41.94786 | -60.53897 | 39050 ft | 553 kts | 86° |
| 2026-05-04 22:22 | 41.95797 | -60.43660 | 39055 ft | 553 kts | 86° |
| 2026-05-04 22:22 | 41.96794 | -60.33465 | 39057 ft | 553 kts | 86° |
| 2026-05-04 22:23 | 41.97787 | -60.23204 | 39056 ft | 553 kts | 86° |
| 2026-05-04 22:23 | 41.98771 | -60.12955 | 39059 ft | 553 kts | 87° |
| 2026-05-04 22:24 | 41.99747 | -60.02697 | 39061 ft | 553 kts | 87° |
| 2026-05-04 22:24 | 42.00996 | -59.92459 | 39063 ft | 555 kts | 83° |
| 2026-05-04 22:25 | 42.02492 | -59.82322 | 39063 ft | 556 kts | 82° |
| 2026-05-04 22:25 | 42.04011 | -59.72124 | 39061 ft | 556 kts | 83° |
| 2026-05-04 22:26 | 42.05489 | -59.61904 | 39064 ft | 556 kts | 83° |
| 2026-05-04 22:26 | 42.06938 | -59.51666 | 39073 ft | 557 kts | 83° |
| 2026-05-04 22:27 | 42.08131 | -59.43156 | 39067 ft | 557 kts | 83° |
| 2026-05-04 22:27 | 42.09796 | -59.31221 | 39063 ft | 558 kts | 83° |
| 2026-05-04 22:28 | 42.10992 | -59.22601 | 39064 ft | 558 kts | 83° |
| 2026-05-04 22:28 | 42.12402 | -59.12388 | 39059 ft | 558 kts | 84° |
| 2026-05-04 22:29 | 42.13812 | -59.02091 | 39062 ft | 558 kts | 84° |
| 2026-05-04 22:29 | 42.15213 | -58.91793 | 39064 ft | 558 kts | 84° |
| 2026-05-04 22:30 | 42.16598 | -58.81543 | 39066 ft | 558 kts | 84° |
| 2026-05-04 22:30 | 42.17983 | -58.71221 | 39066 ft | 558 kts | 84° |
| 2026-05-04 22:31 | 42.19356 | -58.60910 | 39071 ft | 559 kts | 84° |
| 2026-05-04 22:31 | 42.20721 | -58.50586 | 39074 ft | 558 kts | 84° |
| 2026-05-04 22:32 | 42.22076 | -58.40265 | 39068 ft | 558 kts | 84° |
| 2026-05-04 22:32 | 42.23421 | -58.29944 | 39064 ft | 559 kts | 85° |
| 2026-05-04 22:33 | 42.24750 | -58.19675 | 39073 ft | 559 kts | 85° |
| 2026-05-04 22:33 | 42.26077 | -58.09337 | 39069 ft | 559 kts | 85° |
| 2026-05-04 22:34 | 42.27395 | -57.98983 | 39164 ft | 564 kts | 84° |
| 2026-05-04 22:34 | 42.28729 | -57.88402 | 39112 ft | 578 kts | 84° |
| 2026-05-04 22:35 | 42.30086 | -57.77588 | 39091 ft | 588 kts | 84° |
| 2026-05-04 22:35 | 42.31456 | -57.66596 | 39082 ft | 596 kts | 84° |
| 2026-05-04 22:36 | 42.32828 | -57.55511 | 39087 ft | 599 kts | 84° |
| 2026-05-04 22:36 | 42.34187 | -57.44431 | 39077 ft | 602 kts | 84° |
| 2026-05-04 22:37 | 42.35545 | -57.33254 | 39092 ft | 602 kts | 84° |
| 2026-05-04 22:37 | 42.36894 | -57.22065 | 39074 ft | 601 kts | 84° |
| 2026-05-04 22:38 | 42.38220 | -57.10967 | 39077 ft | 599 kts | 84° |
| 2026-05-04 22:38 | 42.39535 | -56.99862 | 39087 ft | 597 kts | 84° |
| 2026-05-04 22:39 | 42.40838 | -56.88758 | 39078 ft | 597 kts | 84° |
| 2026-05-04 22:39 | 42.42131 | -56.77638 | 39084 ft | 598 kts | 84° |
| 2026-05-04 22:39 | 42.42767 | -56.72157 | 38844 ft | 592 kts | 86° |
| 2026-05-04 22:40 | 42.43400 | -56.66740 | 38930 ft | 572 kts | 86° |
| 2026-05-04 22:40 | 42.44011 | -56.61498 | 38955 ft | 555 kts | 87° |
| 2026-05-04 22:40 | 42.44603 | -56.56361 | 38996 ft | 548 kts | 87° |
| 2026-05-04 22:41 | 42.45753 | -56.46091 | 39092 ft | 555 kts | 87° |
| 2026-05-04 22:41 | 42.46909 | -56.35669 | 39090 ft | 563 kts | 87° |
| 2026-05-04 22:42 | 42.48076 | -56.25191 | 39090 ft | 566 kts | 87° |
| 2026-05-04 22:42 | 42.49250 | -56.14614 | 39083 ft | 568 kts | 87° |
| 2026-05-04 22:43 | 42.50416 | -56.04017 | 39081 ft | 567 kts | 87° |
| 2026-05-04 22:43 | 42.51567 | -55.93446 | 39080 ft | 565 kts | 88° |
| 2026-05-04 22:44 | 42.52703 | -55.82915 | 39081 ft | 563 kts | 88° |
| 2026-05-04 22:44 | 42.53815 | -55.72500 | 39078 ft | 561 kts | 88° |
| 2026-05-04 22:45 | 42.54921 | -55.62048 | 39086 ft | 559 kts | 88° |
| 2026-05-04 22:45 | 42.56562 | -55.46357 | 39088 ft | 559 kts | 88° |
| 2026-05-04 22:46 | 42.57636 | -55.35964 | 39083 ft | 559 kts | 88° |
| 2026-05-04 22:46 | 42.58699 | -55.25600 | 39091 ft | 560 kts | 88° |
| 2026-05-04 22:47 | 42.59766 | -55.15102 | 39082 ft | 561 kts | 88° |
| 2026-05-04 22:47 | 42.60822 | -55.04612 | 39097 ft | 561 kts | 87° |
| 2026-05-04 22:48 | 42.61863 | -54.94167 | 39093 ft | 562 kts | 87° |
| 2026-05-04 22:48 | 42.62902 | -54.83649 | 39096 ft | 562 kts | 87° |
| 2026-05-04 22:49 | 42.63931 | -54.73135 | 39087 ft | 562 kts | 87° |
| 2026-05-04 22:49 | 42.64953 | -54.62593 | 39097 ft | 561 kts | 87° |
| 2026-05-04 22:50 | 42.65955 | -54.52146 | 39091 ft | 561 kts | 87° |
| 2026-05-04 22:50 | 42.66954 | -54.41629 | 39100 ft | 560 kts | 87° |
| 2026-05-04 22:51 | 42.67942 | -54.31117 | 39092 ft | 560 kts | 86° |
| 2026-05-04 22:51 | 42.68922 | -54.20599 | 39100 ft | 560 kts | 86° |
| 2026-05-04 22:52 | 42.69892 | -54.10070 | 39099 ft | 561 kts | 86° |
| 2026-05-04 22:52 | 42.70852 | -53.99540 | 39102 ft | 561 kts | 86° |
| 2026-05-04 22:53 | 42.71798 | -53.89063 | 39112 ft | 561 kts | 86° |
| 2026-05-04 22:53 | 42.72740 | -53.78517 | 39114 ft | 561 kts | 86° |
| 2026-05-04 22:54 | 42.73672 | -53.67974 | 39105 ft | 561 kts | 86° |
| 2026-05-04 22:54 | 42.74595 | -53.57414 | 39110 ft | 562 kts | 86° |
| 2026-05-04 22:55 | 42.75503 | -53.46914 | 39104 ft | 562 kts | 86° |
| 2026-05-04 22:55 | 42.76407 | -53.36347 | 39112 ft | 562 kts | 86° |
| 2026-05-04 22:56 | 42.77302 | -53.25769 | 39103 ft | 562 kts | 86° |
| 2026-05-04 22:56 | 42.78188 | -53.15192 | 39117 ft | 562 kts | 86° |
| 2026-05-04 22:57 | 42.79058 | -53.04678 | 39105 ft | 562 kts | 86° |
| 2026-05-04 22:57 | 42.79925 | -52.94078 | 39113 ft | 562 kts | 86° |
| 2026-05-04 22:58 | 42.80782 | -52.83477 | 39110 ft | 563 kts | 86° |
| 2026-05-04 22:58 | 42.81630 | -52.72855 | 39114 ft | 563 kts | 86° |
| 2026-05-04 22:59 | 42.82462 | -52.62322 | 39109 ft | 563 kts | 86° |
| 2026-05-04 22:59 | 42.83289 | -52.51718 | 39113 ft | 562 kts | 85° |
| 2026-05-04 23:00 | 42.84102 | -52.41169 | 39098 ft | 562 kts | 85° |
| 2026-05-04 23:00 | 42.84907 | -52.30597 | 39113 ft | 560 kts | 85° |
| 2026-05-04 23:01 | 42.85701 | -52.20032 | 39134 ft | 560 kts | 85° |
| 2026-05-04 23:01 | 42.86486 | -52.09454 | 39120 ft | 561 kts | 85° |
| 2026-05-04 23:02 | 42.87262 | -51.98882 | 39133 ft | 561 kts | 85° |
| 2026-05-04 23:02 | 42.88024 | -51.88347 | 39129 ft | 561 kts | 85° |
| 2026-05-04 23:03 | 42.88782 | -51.77741 | 39132 ft | 562 kts | 85° |
| 2026-05-04 23:03 | 42.89157 | -51.72437 | 39520 ft | 563 kts | 86° |
| 2026-05-04 23:03 | 42.89533 | -51.67069 | 39350 ft | 574 kts | 86° |
| 2026-05-04 23:04 | 42.90295 | -51.56068 | 39228 ft | 590 kts | 86° |
| 2026-05-04 23:04 | 42.91064 | -51.44850 | 39166 ft | 603 kts | 86° |
| 2026-05-04 23:05 | 42.91843 | -51.33342 | 39152 ft | 613 kts | 86° |
| 2026-05-04 23:05 | 42.92621 | -51.21659 | 39143 ft | 619 kts | 86° |
| 2026-05-04 23:06 | 42.93390 | -51.09934 | 39144 ft | 621 kts | 86° |
| 2026-05-04 23:06 | 42.94146 | -50.98222 | 39132 ft | 615 kts | 86° |
| 2026-05-04 23:07 | 42.94881 | -50.86656 | 39143 ft | 612 kts | 86° |
| 2026-05-04 23:07 | 42.95598 | -50.75150 | 39150 ft | 613 kts | 86° |
| 2026-05-04 23:08 | 42.96310 | -50.63534 | 39152 ft | 614 kts | 87° |
| 2026-05-04 23:08 | 42.97012 | -50.51909 | 39157 ft | 614 kts | 87° |
| 2026-05-04 23:09 | 42.97702 | -50.40278 | 39153 ft | 615 kts | 87° |
| 2026-05-04 23:09 | 42.98382 | -50.28619 | 39153 ft | 615 kts | 87° |
| 2026-05-04 23:10 | 42.99049 | -50.16982 | 39148 ft | 614 kts | 87° |
| 2026-05-04 23:10 | 42.99701 | -50.05413 | 39154 ft | 613 kts | 87° |
| 2026-05-04 23:11 | 43.00749 | -49.93844 | 39164 ft | 613 kts | 79° |
| 2026-05-04 23:11 | 43.02431 | -49.82411 | 39164 ft | 613 kts | 77° |
| 2026-05-04 23:12 | 43.04164 | -49.71000 | 39157 ft | 613 kts | 77° |
| 2026-05-04 23:12 | 43.05827 | -49.59617 | 39164 ft | 613 kts | 78° |
| 2026-05-04 23:13 | 43.07444 | -49.48168 | 39167 ft | 613 kts | 78° |
| 2026-05-04 23:13 | 43.09043 | -49.36698 | 39170 ft | 613 kts | 78° |
| 2026-05-04 23:14 | 43.10636 | -49.25235 | 39169 ft | 613 kts | 78° |
| 2026-05-04 23:14 | 43.11957 | -49.15693 | 39170 ft | 613 kts | 78° |
| 2026-05-04 23:15 | 43.13793 | -49.02332 | 39171 ft | 614 kts | 78° |
| 2026-05-04 23:15 | 43.15358 | -48.90839 | 39170 ft | 614 kts | 78° |
| 2026-05-04 23:16 | 43.16651 | -48.81272 | 39173 ft | 614 kts | 78° |
| 2026-05-04 23:16 | 43.18189 | -48.69813 | 39175 ft | 614 kts | 79° |
| 2026-05-04 23:17 | 43.19725 | -48.58275 | 39174 ft | 614 kts | 79° |
| 2026-05-04 23:17 | 43.21247 | -48.46743 | 39169 ft | 614 kts | 79° |
| 2026-05-04 23:18 | 43.22758 | -48.35206 | 39164 ft | 614 kts | 79° |
| 2026-05-04 23:18 | 43.24248 | -48.23738 | 39172 ft | 614 kts | 79° |
| 2026-05-04 23:19 | 43.25734 | -48.12204 | 39167 ft | 614 kts | 79° |
| 2026-05-04 23:19 | 43.27208 | -48.00675 | 39169 ft | 613 kts | 79° |
| 2026-05-04 23:20 | 43.28670 | -47.89136 | 39167 ft | 613 kts | 79° |
| 2026-05-04 23:20 | 43.30119 | -47.77599 | 39170 ft | 613 kts | 79° |
| 2026-05-04 23:21 | 43.31549 | -47.66125 | 39172 ft | 613 kts | 79° |
| 2026-05-04 23:21 | 43.32983 | -47.54513 | 39172 ft | 613 kts | 79° |
| 2026-05-04 23:22 | 43.34392 | -47.43014 | 39178 ft | 614 kts | 79° |
| 2026-05-04 23:22 | 43.35800 | -47.31413 | 39168 ft | 614 kts | 79° |
| 2026-05-04 23:23 | 43.37195 | -47.19816 | 39176 ft | 615 kts | 79° |
| 2026-05-04 23:23 | 43.38572 | -47.08271 | 39170 ft | 614 kts | 79° |
| 2026-05-04 23:24 | 43.39946 | -46.96652 | 39170 ft | 614 kts | 79° |
| 2026-05-04 23:24 | 43.41304 | -46.85057 | 39167 ft | 613 kts | 79° |
| 2026-05-04 23:25 | 43.42649 | -46.73467 | 39166 ft | 613 kts | 80° |
| 2026-05-04 23:25 | 43.43982 | -46.61881 | 39164 ft | 612 kts | 80° |
| 2026-05-04 23:26 | 43.45292 | -46.50380 | 39166 ft | 612 kts | 80° |
| 2026-05-04 23:26 | 43.46599 | -46.38804 | 39163 ft | 612 kts | 80° |
| 2026-05-04 23:27 | 43.47895 | -46.27224 | 39160 ft | 611 kts | 80° |
| 2026-05-04 23:27 | 43.49177 | -46.15646 | 39161 ft | 611 kts | 80° |
| 2026-05-04 23:28 | 43.50447 | -46.04074 | 39155 ft | 610 kts | 80° |
| 2026-05-04 23:28 | 43.51704 | -45.92506 | 39157 ft | 610 kts | 80° |
| 2026-05-04 23:29 | 43.52941 | -45.81020 | 39155 ft | 609 kts | 80° |
| 2026-05-04 23:29 | 43.54173 | -45.69456 | 39157 ft | 609 kts | 81° |
| 2026-05-04 23:30 | 43.55392 | -45.57908 | 39166 ft | 608 kts | 80° |
| 2026-05-04 23:30 | 43.56599 | -45.46356 | 39158 ft | 608 kts | 81° |
| 2026-05-04 23:31 | 43.57794 | -45.34806 | 39156 ft | 608 kts | 81° |
| 2026-05-04 23:31 | 43.58969 | -45.23328 | 39156 ft | 607 kts | 81° |
| 2026-05-04 23:32 | 43.60139 | -45.11783 | 39156 ft | 607 kts | 81° |
| 2026-05-04 23:32 | 43.61297 | -45.00238 | 39153 ft | 606 kts | 81° |
| 2026-05-04 23:33 | 43.62443 | -44.88698 | 39153 ft | 606 kts | 81° |
| 2026-05-04 23:33 | 43.63569 | -44.77238 | 39154 ft | 605 kts | 81° |
| 2026-05-04 23:34 | 43.64689 | -44.65710 | 39152 ft | 604 kts | 81° |
| 2026-05-04 23:34 | 43.65796 | -44.54197 | 39152 ft | 603 kts | 81° |
| 2026-05-04 23:35 | 43.66881 | -44.42781 | 39148 ft | 603 kts | 81° |
| 2026-05-04 23:35 | 43.67961 | -44.31305 | 39144 ft | 602 kts | 81° |
| 2026-05-04 23:36 | 43.69030 | -44.19815 | 39148 ft | 602 kts | 81° |
| 2026-05-04 23:36 | 43.70086 | -44.08335 | 39146 ft | 601 kts | 81° |
| 2026-05-04 23:37 | 43.71122 | -43.96952 | 39144 ft | 600 kts | 81° |
| 2026-05-04 23:37 | 43.72154 | -43.85483 | 39145 ft | 600 kts | 81° |
| 2026-05-04 23:38 | 43.73171 | -43.74034 | 39144 ft | 599 kts | 81° |
| 2026-05-04 23:38 | 43.74171 | -43.62658 | 39142 ft | 598 kts | 81° |
| 2026-05-04 23:39 | 43.75165 | -43.51223 | 39145 ft | 597 kts | 81° |
| 2026-05-04 23:39 | 43.76145 | -43.39807 | 39140 ft | 597 kts | 81° |
| 2026-05-04 23:40 | 43.77114 | -43.28386 | 39139 ft | 596 kts | 81° |
| 2026-05-04 23:40 | 43.78064 | -43.17050 | 39137 ft | 595 kts | 82° |
| 2026-05-04 23:41 | 43.79006 | -43.05663 | 39140 ft | 594 kts | 82° |
| 2026-05-04 23:41 | 43.79937 | -42.94290 | 39139 ft | 594 kts | 82° |
| 2026-05-04 23:42 | 43.80855 | -42.82924 | 39147 ft | 593 kts | 82° |
| 2026-05-04 23:42 | 43.81760 | -42.71569 | 39152 ft | 593 kts | 82° |
| 2026-05-04 23:43 | 43.82648 | -42.60288 | 39151 ft | 592 kts | 82° |
| 2026-05-04 23:43 | 43.83529 | -42.48953 | 39154 ft | 592 kts | 82° |
| 2026-05-04 23:44 | 43.84400 | -42.37600 | 39162 ft | 591 kts | 82° |
| 2026-05-04 23:44 | 43.85257 | -42.26279 | 39167 ft | 590 kts | 82° |
| 2026-05-04 23:45 | 43.86096 | -42.15043 | 39173 ft | 589 kts | 82° |
| 2026-05-04 23:45 | 43.86929 | -42.03735 | 39180 ft | 588 kts | 82° |
| 2026-05-04 23:46 | 43.87748 | -41.92469 | 39184 ft | 587 kts | 82° |
| 2026-05-04 23:46 | 43.88553 | -41.81235 | 39193 ft | 585 kts | 82° |
| 2026-05-04 23:47 | 43.89343 | -41.70071 | 39193 ft | 583 kts | 82° |
| 2026-05-04 23:47 | 43.90121 | -41.58904 | 39194 ft | 580 kts | 82° |
| 2026-05-04 23:48 | 43.90886 | -41.47772 | 39202 ft | 578 kts | 82° |
| 2026-05-04 23:48 | 43.91637 | -41.36676 | 39201 ft | 576 kts | 82° |
| 2026-05-04 23:49 | 43.92370 | -41.25690 | 39214 ft | 574 kts | 82° |
| 2026-05-04 23:49 | 43.93095 | -41.14671 | 39219 ft | 572 kts | 83° |
| 2026-05-04 23:50 | 43.93807 | -41.03691 | 39222 ft | 570 kts | 83° |
| 2026-05-04 23:50 | 43.94504 | -40.92757 | 39228 ft | 568 kts | 83° |
| 2026-05-04 23:51 | 43.95189 | -40.81861 | 39227 ft | 565 kts | 83° |
| 2026-05-04 23:51 | 43.95861 | -40.71014 | 39241 ft | 563 kts | 83° |
| 2026-05-04 23:52 | 43.96516 | -40.60255 | 39240 ft | 561 kts | 83° |
| 2026-05-04 23:52 | 43.97165 | -40.49447 | 39244 ft | 559 kts | 83° |
| 2026-05-04 23:53 | 43.97799 | -40.38707 | 39249 ft | 556 kts | 83° |
| 2026-05-04 23:53 | 43.98415 | -40.28091 | 39249 ft | 553 kts | 84° |
| 2026-05-04 23:54 | 43.99023 | -40.17457 | 39262 ft | 550 kts | 84° |
| 2026-05-04 23:54 | 43.99618 | -40.06885 | 39257 ft | 548 kts | 84° |
| 2026-05-04 23:55 | 44.00188 | -39.96412 | 39268 ft | 546 kts | 84° |
| 2026-05-04 23:56 | 44.00856 | -39.80647 | 39276 ft | 543 kts | 85° |
| 2026-05-04 23:56 | 44.01268 | -39.70175 | 39276 ft | 542 kts | 85° |
| 2026-05-04 23:57 | 44.01685 | -39.59709 | 39278 ft | 541 kts | 85° |
| 2026-05-04 23:57 | 44.02101 | -39.49280 | 39278 ft | 540 kts | 85° |
| 2026-05-04 23:58 | 44.02504 | -39.38927 | 39281 ft | 539 kts | 85° |
| 2026-05-04 23:58 | 44.02899 | -39.28532 | 39287 ft | 539 kts | 86° |
| 2026-05-04 23:59 | 44.03284 | -39.18138 | 39291 ft | 538 kts | 86° |
| 2026-05-04 23:59 | 44.03659 | -39.07745 | 39292 ft | 537 kts | 86° |
| 2026-05-05 00:00 | 44.04023 | -38.97378 | 39303 ft | 537 kts | 86° |
| 2026-05-05 00:00 | 44.04377 | -38.87025 | 39305 ft | 536 kts | 86° |
| 2026-05-05 00:01 | 44.04723 | -38.76660 | 39311 ft | 536 kts | 86° |
| 2026-05-05 00:01 | 44.05057 | -38.66383 | 39313 ft | 535 kts | 86° |
| 2026-05-05 00:02 | 44.05384 | -38.56027 | 39312 ft | 535 kts | 86° |
| 2026-05-05 00:02 | 44.05700 | -38.45703 | 39312 ft | 533 kts | 87° |
| 2026-05-05 00:03 | 44.06006 | -38.35394 | 39323 ft | 532 kts | 87° |
| 2026-05-05 00:03 | 44.06301 | -38.25187 | 39326 ft | 531 kts | 87° |
| 2026-05-05 00:04 | 44.06587 | -38.14932 | 39332 ft | 529 kts | 87° |
| 2026-05-05 00:04 | 44.06818 | -38.06427 | 39324 ft | 528 kts | 87° |
| 2026-05-05 00:05 | 44.07086 | -37.96241 | 39332 ft | 526 kts | 87° |
| 2026-05-05 00:05 | 44.07344 | -37.86086 | 39331 ft | 524 kts | 87° |
| 2026-05-05 00:06 | 44.07592 | -37.75969 | 39334 ft | 522 kts | 87° |
| 2026-05-05 00:06 | 44.07831 | -37.65882 | 39334 ft | 520 kts | 87° |
| 2026-05-05 00:07 | 44.08058 | -37.55887 | 39339 ft | 518 kts | 87° |
| 2026-05-05 00:07 | 44.08277 | -37.45878 | 39344 ft | 516 kts | 88° |
| 2026-05-05 00:08 | 44.08487 | -37.35899 | 39353 ft | 515 kts | 88° |
| 2026-05-05 00:08 | 44.08688 | -37.25952 | 39354 ft | 514 kts | 88° |
| 2026-05-05 00:09 | 44.08879 | -37.16006 | 39358 ft | 513 kts | 88° |
| 2026-05-05 00:09 | 44.09061 | -37.06140 | 39362 ft | 513 kts | 88° |
| 2026-05-05 00:10 | 44.09235 | -36.96227 | 39357 ft | 512 kts | 88° |
| 2026-05-05 00:10 | 44.09401 | -36.86311 | 39361 ft | 512 kts | 88° |
| 2026-05-05 00:11 | 44.09557 | -36.76401 | 39362 ft | 512 kts | 88° |
| 2026-05-05 00:11 | 44.09705 | -36.66561 | 39366 ft | 511 kts | 88° |
| 2026-05-05 00:12 | 44.09844 | -36.56677 | 39372 ft | 511 kts | 88° |
| 2026-05-05 00:12 | 44.09975 | -36.46782 | 39371 ft | 510 kts | 88° |
| 2026-05-05 00:13 | 44.10096 | -36.36979 | 39372 ft | 509 kts | 88° |
| 2026-05-05 00:13 | 44.10210 | -36.27118 | 39388 ft | 509 kts | 88° |
| 2026-05-05 00:14 | 44.10315 | -36.17259 | 39377 ft | 509 kts | 88° |
| 2026-05-05 00:14 | 44.10411 | -36.07413 | 39380 ft | 509 kts | 88° |
| 2026-05-05 00:15 | 44.10500 | -35.97553 | 39393 ft | 509 kts | 88° |
| 2026-05-05 00:15 | 44.10579 | -35.87715 | 39397 ft | 509 kts | 88° |
| 2026-05-05 00:16 | 44.10650 | -35.77925 | 39396 ft | 509 kts | 88° |
| 2026-05-05 00:16 | 44.10713 | -35.68070 | 39399 ft | 509 kts | 88° |
| 2026-05-05 00:17 | 44.10767 | -35.58216 | 39404 ft | 509 kts | 88° |
| 2026-05-05 00:17 | 44.10813 | -35.48356 | 39403 ft | 509 kts | 87° |
| 2026-05-05 00:18 | 44.10850 | -35.38497 | 39405 ft | 509 kts | 87° |
| 2026-05-05 00:18 | 44.10879 | -35.28646 | 39409 ft | 508 kts | 87° |
| 2026-05-05 00:19 | 44.10899 | -35.18858 | 39414 ft | 508 kts | 87° |
| 2026-05-05 00:19 | 44.10911 | -35.09024 | 39412 ft | 508 kts | 87° |
| 2026-05-05 00:20 | 44.10914 | -34.99208 | 39417 ft | 507 kts | 87° |
| 2026-05-05 00:20 | 44.10909 | -34.89441 | 39425 ft | 507 kts | 87° |
| 2026-05-05 00:21 | 44.10896 | -34.79632 | 39424 ft | 506 kts | 87° |
| 2026-05-05 00:21 | 44.10874 | -34.69849 | 39426 ft | 505 kts | 87° |
| 2026-05-05 00:22 | 44.10844 | -34.60079 | 39429 ft | 504 kts | 87° |
| 2026-05-05 00:22 | 44.10806 | -34.50388 | 39431 ft | 503 kts | 87° |
| 2026-05-05 00:23 | 44.10760 | -34.40638 | 39435 ft | 503 kts | 87° |
| 2026-05-05 00:23 | 44.10706 | -34.30915 | 39439 ft | 503 kts | 87° |
| 2026-05-05 00:24 | 44.10643 | -34.21178 | 39440 ft | 503 kts | 87° |
| 2026-05-05 00:24 | 44.10572 | -34.11450 | 39436 ft | 502 kts | 87° |
| 2026-05-05 00:25 | 44.10493 | -34.01797 | 39441 ft | 502 kts | 87° |
| 2026-05-05 00:25 | 44.10406 | -33.92074 | 39446 ft | 502 kts | 87° |
| 2026-05-05 00:26 | 44.10310 | -33.82343 | 39443 ft | 502 kts | 87° |
| 2026-05-05 00:26 | 44.10206 | -33.72631 | 39443 ft | 501 kts | 86° |
| 2026-05-05 00:27 | 44.10095 | -33.62963 | 39446 ft | 501 kts | 86° |
| 2026-05-05 00:27 | 44.09974 | -33.53255 | 39448 ft | 501 kts | 86° |
| 2026-05-05 00:28 | 44.09847 | -33.43629 | 39448 ft | 500 kts | 86° |
| 2026-05-05 00:28 | 44.09711 | -33.33958 | 39452 ft | 500 kts | 86° |
| 2026-05-05 00:29 | 44.09567 | -33.24295 | 39454 ft | 499 kts | 86° |
| 2026-05-05 00:29 | 44.09415 | -33.14634 | 39457 ft | 499 kts | 86° |
| 2026-05-05 00:30 | 44.09255 | -33.05022 | 39456 ft | 498 kts | 86° |
| 2026-05-05 00:30 | 44.09087 | -32.95378 | 39456 ft | 498 kts | 86° |
| 2026-05-05 00:31 | 44.08911 | -32.85744 | 39459 ft | 498 kts | 86° |
| 2026-05-05 00:31 | 44.08727 | -32.76127 | 39460 ft | 497 kts | 86° |
| 2026-05-05 00:32 | 44.08535 | -32.66511 | 39459 ft | 496 kts | 86° |
| 2026-05-05 00:32 | 44.08337 | -32.56972 | 39456 ft | 496 kts | 86° |
| 2026-05-05 00:33 | 44.08129 | -32.47383 | 39459 ft | 495 kts | 86° |
| 2026-05-05 00:33 | 44.07915 | -32.37827 | 39456 ft | 494 kts | 86° |
| 2026-05-05 00:34 | 44.07692 | -32.28268 | 39458 ft | 493 kts | 86° |
| 2026-05-05 00:34 | 44.07463 | -32.18802 | 39465 ft | 492 kts | 86° |
| 2026-05-05 00:35 | 44.07226 | -32.09284 | 39464 ft | 492 kts | 86° |
| 2026-05-05 00:35 | 44.06980 | -31.99780 | 39459 ft | 491 kts | 86° |
| 2026-05-05 00:36 | 44.06728 | -31.90304 | 39458 ft | 490 kts | 86° |
| 2026-05-05 00:36 | 44.06468 | -31.80841 | 39459 ft | 489 kts | 86° |
| 2026-05-05 00:37 | 44.06201 | -31.71402 | 39463 ft | 488 kts | 86° |
| 2026-05-05 00:37 | 44.05927 | -31.61977 | 39463 ft | 487 kts | 86° |
| 2026-05-05 00:38 | 44.05647 | -31.52632 | 39461 ft | 486 kts | 86° |
| 2026-05-05 00:38 | 44.05359 | -31.43241 | 39461 ft | 486 kts | 86° |
| 2026-05-05 00:39 | 44.05063 | -31.33863 | 39475 ft | 485 kts | 86° |
| 2026-05-05 00:39 | 44.04759 | -31.24492 | 39473 ft | 485 kts | 86° |
| 2026-05-05 00:40 | 44.04448 | -31.15113 | 39468 ft | 484 kts | 86° |
| 2026-05-05 00:40 | 44.04129 | -31.05755 | 39471 ft | 484 kts | 86° |
| 2026-05-05 00:41 | 44.03805 | -30.96457 | 39472 ft | 484 kts | 86° |
| 2026-05-05 00:41 | 44.03472 | -30.87101 | 39476 ft | 484 kts | 86° |
| 2026-05-05 00:42 | 44.03131 | -30.77756 | 39473 ft | 484 kts | 86° |
| 2026-05-05 00:42 | 44.02783 | -30.68418 | 39473 ft | 484 kts | 86° |
| 2026-05-05 00:43 | 44.02429 | -30.59142 | 39475 ft | 484 kts | 86° |
| 2026-05-05 00:43 | 44.02066 | -30.49802 | 39474 ft | 484 kts | 86° |
| 2026-05-05 00:44 | 44.01694 | -30.40448 | 39471 ft | 484 kts | 86° |
| 2026-05-05 00:44 | 44.01315 | -30.31110 | 39476 ft | 483 kts | 86° |
| 2026-05-05 00:45 | 44.00931 | -30.21827 | 39477 ft | 483 kts | 86° |
| 2026-05-05 00:45 | 44.00538 | -30.12512 | 39468 ft | 483 kts | 86° |
| 2026-05-05 00:46 | 44.00138 | -30.03174 | 39477 ft | 483 kts | 86° |
| 2026-05-05 00:46 | 43.99834 | -29.93857 | 39474 ft | 481 kts | 83° |
| 2026-05-05 00:47 | 43.99800 | -29.84645 | 39480 ft | 480 kts | 82° |
| 2026-05-05 00:47 | 43.99793 | -29.75375 | 39477 ft | 480 kts | 83° |
| 2026-05-05 00:48 | 43.99741 | -29.66091 | 39475 ft | 480 kts | 83° |
| 2026-05-05 00:48 | 43.99657 | -29.56814 | 39475 ft | 480 kts | 83° |
| 2026-05-05 00:49 | 43.99558 | -29.47535 | 39477 ft | 480 kts | 83° |
| 2026-05-05 00:49 | 43.99454 | -29.38320 | 39479 ft | 480 kts | 83° |
| 2026-05-05 00:50 | 43.99343 | -29.29043 | 39478 ft | 481 kts | 84° |
| 2026-05-05 00:50 | 43.99225 | -29.19755 | 39474 ft | 481 kts | 84° |
| 2026-05-05 00:51 | 43.99100 | -29.10467 | 39480 ft | 481 kts | 84° |
| 2026-05-05 00:51 | 43.98966 | -29.01166 | 39477 ft | 481 kts | 84° |
| 2026-05-05 00:52 | 43.98826 | -28.91907 | 39472 ft | 482 kts | 84° |
| 2026-05-05 00:52 | 43.98677 | -28.82584 | 39476 ft | 482 kts | 84° |
| 2026-05-05 00:53 | 43.98548 | -28.74852 | 39474 ft | 482 kts | 84° |
| 2026-05-05 00:53 | 43.98386 | -28.65534 | 39478 ft | 483 kts | 84° |
| 2026-05-05 00:54 | 43.98216 | -28.56251 | 39471 ft | 483 kts | 84° |
| 2026-05-05 00:54 | 43.98038 | -28.46917 | 39467 ft | 483 kts | 84° |
| 2026-05-05 00:55 | 43.97853 | -28.37575 | 39471 ft | 484 kts | 85° |
| 2026-05-05 00:55 | 43.97659 | -28.28230 | 39477 ft | 484 kts | 85° |
| 2026-05-05 00:56 | 43.97459 | -28.18936 | 39472 ft | 485 kts | 85° |
| 2026-05-05 00:56 | 43.97250 | -28.09558 | 39474 ft | 485 kts | 85° |
| 2026-05-05 00:57 | 43.97033 | -28.00182 | 39468 ft | 485 kts | 85° |
| 2026-05-05 00:57 | 43.96808 | -27.90811 | 39465 ft | 486 kts | 85° |
| 2026-05-05 00:58 | 43.96577 | -27.81488 | 39468 ft | 486 kts | 86° |
| 2026-05-05 00:58 | 43.96337 | -27.72109 | 39471 ft | 486 kts | 86° |
| 2026-05-05 00:59 | 43.96089 | -27.62717 | 39468 ft | 487 kts | 86° |
| 2026-05-05 00:59 | 43.95832 | -27.53306 | 39462 ft | 487 kts | 86° |
| 2026-05-05 01:00 | 43.95568 | -27.43904 | 39460 ft | 487 kts | 86° |
| 2026-05-05 01:00 | 43.95296 | -27.34505 | 39458 ft | 487 kts | 86° |
| 2026-05-05 01:01 | 43.95010 | -27.25148 | 39464 ft | 487 kts | 87° |
| 2026-05-05 01:01 | 43.94706 | -27.15743 | 39463 ft | 487 kts | 87° |
| 2026-05-05 01:02 | 43.94408 | -27.06339 | 39458 ft | 487 kts | 87° |
| 2026-05-05 01:02 | 43.94108 | -26.96945 | 39458 ft | 487 kts | 88° |
| 2026-05-05 01:03 | 43.93800 | -26.87549 | 39454 ft | 488 kts | 88° |
| 2026-05-05 01:03 | 43.93485 | -26.78204 | 39450 ft | 488 kts | 88° |
| 2026-05-05 01:04 | 43.93158 | -26.68784 | 39447 ft | 488 kts | 88° |
| 2026-05-05 01:04 | 43.92656 | -26.54722 | 39445 ft | 488 kts | 88° |
| 2026-05-05 01:05 | 43.92311 | -26.45317 | 39444 ft | 488 kts | 88° |
| 2026-05-05 01:05 | 43.91958 | -26.35907 | 39440 ft | 488 kts | 88° |
| 2026-05-05 01:06 | 43.91597 | -26.26496 | 39442 ft | 488 kts | 89° |
| 2026-05-05 01:06 | 43.91227 | -26.17065 | 39439 ft | 489 kts | 89° |
| 2026-05-05 01:07 | 43.90851 | -26.07653 | 39437 ft | 489 kts | 89° |
| 2026-05-05 01:07 | 43.90468 | -25.98280 | 39441 ft | 489 kts | 89° |
| 2026-05-05 01:08 | 43.90076 | -25.88864 | 39442 ft | 489 kts | 89° |
| 2026-05-05 01:08 | 43.89676 | -25.79446 | 39437 ft | 489 kts | 89° |
| 2026-05-05 01:09 | 43.89268 | -25.70031 | 39430 ft | 489 kts | 90° |
| 2026-05-05 01:09 | 43.88852 | -25.60609 | 39433 ft | 489 kts | 90° |
| 2026-05-05 01:10 | 43.88428 | -25.51181 | 39430 ft | 489 kts | 90° |
| 2026-05-05 01:10 | 43.88000 | -25.41830 | 39424 ft | 489 kts | 90° |
| 2026-05-05 01:11 | 43.87561 | -25.32415 | 39429 ft | 489 kts | 90° |
| 2026-05-05 01:11 | 43.87115 | -25.23003 | 39426 ft | 489 kts | 90° |
| 2026-05-05 01:12 | 43.86661 | -25.13594 | 39423 ft | 489 kts | 90° |
| 2026-05-05 01:12 | 43.86199 | -25.04184 | 39423 ft | 489 kts | 90° |
| 2026-05-05 01:13 | 43.85730 | -24.94797 | 39419 ft | 489 kts | 91° |
| 2026-05-05 01:13 | 43.85256 | -24.85466 | 39421 ft | 488 kts | 91° |
| 2026-05-05 01:14 | 43.84772 | -24.76066 | 39415 ft | 488 kts | 91° |
| 2026-05-05 01:14 | 43.84279 | -24.66672 | 39416 ft | 488 kts | 91° |
| 2026-05-05 01:15 | 43.83780 | -24.57285 | 39413 ft | 488 kts | 91° |
| 2026-05-05 01:15 | 43.83273 | -24.47911 | 39416 ft | 488 kts | 91° |
| 2026-05-05 01:16 | 43.82762 | -24.38592 | 39414 ft | 488 kts | 91° |
| 2026-05-05 01:16 | 43.82238 | -24.29199 | 39412 ft | 488 kts | 91° |
| 2026-05-05 01:17 | 43.81709 | -24.19828 | 39409 ft | 488 kts | 92° |
| 2026-05-05 01:17 | 43.81171 | -24.10453 | 39409 ft | 488 kts | 92° |
| 2026-05-05 01:18 | 43.80630 | -24.01153 | 39411 ft | 487 kts | 92° |
| 2026-05-05 01:18 | 43.80076 | -23.91779 | 39407 ft | 487 kts | 92° |
| 2026-05-05 01:19 | 43.79517 | -23.82431 | 39405 ft | 487 kts | 92° |
| 2026-05-05 01:19 | 43.78954 | -23.73149 | 39406 ft | 487 kts | 92° |
| 2026-05-05 01:20 | 43.78380 | -23.63807 | 39403 ft | 486 kts | 92° |
| 2026-05-05 01:20 | 43.77797 | -23.54456 | 39402 ft | 486 kts | 92° |
| 2026-05-05 01:21 | 43.77209 | -23.45139 | 39401 ft | 486 kts | 92° |
| 2026-05-05 01:21 | 43.76616 | -23.35874 | 39400 ft | 486 kts | 92° |
| 2026-05-05 01:22 | 43.76011 | -23.26536 | 39400 ft | 486 kts | 93° |
| 2026-05-05 01:22 | 43.75399 | -23.17206 | 39396 ft | 486 kts | 93° |
| 2026-05-05 01:23 | 43.74785 | -23.07954 | 39398 ft | 486 kts | 93° |
| 2026-05-05 01:23 | 43.74159 | -22.98648 | 39401 ft | 486 kts | 93° |
| 2026-05-05 01:24 | 43.73525 | -22.89344 | 39398 ft | 486 kts | 93° |
| 2026-05-05 01:24 | 43.72883 | -22.80024 | 39394 ft | 486 kts | 93° |
| 2026-05-05 01:25 | 43.72235 | -22.70733 | 39396 ft | 486 kts | 93° |
| 2026-05-05 01:25 | 43.71580 | -22.61440 | 39392 ft | 485 kts | 94° |
| 2026-05-05 01:26 | 43.70921 | -22.52218 | 39394 ft | 485 kts | 94° |
| 2026-05-05 01:26 | 43.70250 | -22.42915 | 39384 ft | 485 kts | 94° |
| 2026-05-05 01:27 | 43.69570 | -22.33610 | 39389 ft | 485 kts | 94° |
| 2026-05-05 01:27 | 43.68885 | -22.24335 | 39385 ft | 485 kts | 94° |
| 2026-05-05 01:28 | 43.68195 | -22.15095 | 39380 ft | 485 kts | 94° |
| 2026-05-05 01:28 | 43.67494 | -22.05816 | 39384 ft | 485 kts | 94° |
| 2026-05-05 01:29 | 43.66786 | -21.96538 | 39380 ft | 485 kts | 94° |
| 2026-05-05 01:29 | 43.66071 | -21.87263 | 39383 ft | 485 kts | 94° |
| 2026-05-05 01:30 | 43.65352 | -21.78048 | 39376 ft | 485 kts | 94° |
| 2026-05-05 01:30 | 43.64622 | -21.68778 | 39374 ft | 485 kts | 94° |
| 2026-05-05 01:31 | 43.63884 | -21.59516 | 39371 ft | 485 kts | 95° |
| 2026-05-05 01:31 | 43.63139 | -21.50250 | 39374 ft | 485 kts | 95° |
| 2026-05-05 01:32 | 43.62386 | -21.40984 | 39369 ft | 485 kts | 95° |
| 2026-05-05 01:32 | 43.61631 | -21.31792 | 39367 ft | 485 kts | 95° |
| 2026-05-05 01:33 | 43.60863 | -21.22529 | 39369 ft | 485 kts | 95° |
| 2026-05-05 01:33 | 43.60087 | -21.13271 | 39370 ft | 485 kts | 95° |
| 2026-05-05 01:34 | 43.59306 | -21.04025 | 39368 ft | 485 kts | 95° |
| 2026-05-05 01:34 | 43.58516 | -20.94785 | 39365 ft | 485 kts | 95° |
| 2026-05-05 01:35 | 43.57724 | -20.85592 | 39360 ft | 485 kts | 95° |
| 2026-05-05 01:35 | 43.56920 | -20.76351 | 39364 ft | 485 kts | 95° |
| 2026-05-05 01:36 | 43.56108 | -20.67110 | 39364 ft | 485 kts | 95° |
| 2026-05-05 01:36 | 43.55288 | -20.57868 | 39362 ft | 485 kts | 95° |
| 2026-05-05 01:37 | 43.54467 | -20.48683 | 39359 ft | 485 kts | 95° |
| 2026-05-05 01:37 | 43.53637 | -20.39493 | 39354 ft | 485 kts | 96° |
| 2026-05-05 01:38 | 43.52796 | -20.30258 | 39354 ft | 485 kts | 96° |
| 2026-05-05 01:38 | 43.51948 | -20.21012 | 39355 ft | 485 kts | 96° |
| 2026-05-05 01:39 | 43.51094 | -20.11774 | 39352 ft | 485 kts | 96° |
| 2026-05-05 01:39 | 43.50233 | -20.02549 | 39349 ft | 485 kts | 96° |
| 2026-05-05 01:40 | 43.49160 | -19.93415 | 39346 ft | 486 kts | 99° |
| 2026-05-05 01:40 | 43.47850 | -19.84272 | 39346 ft | 487 kts | 100° |
| 2026-05-05 01:41 | 43.46521 | -19.75122 | 39343 ft | 487 kts | 99° |
| 2026-05-05 01:41 | 43.45215 | -19.65977 | 39340 ft | 487 kts | 99° |
| 2026-05-05 01:42 | 43.44136 | -19.58365 | 39341 ft | 487 kts | 99° |
| 2026-05-05 01:42 | 43.42833 | -19.49203 | 39338 ft | 488 kts | 99° |
| 2026-05-05 01:43 | 43.41522 | -19.40042 | 39342 ft | 488 kts | 99° |
| 2026-05-05 01:43 | 43.40202 | -19.30881 | 39332 ft | 488 kts | 100° |
| 2026-05-05 01:44 | 43.38874 | -19.21723 | 39337 ft | 489 kts | 100° |
| 2026-05-05 01:44 | 43.37535 | -19.12544 | 39334 ft | 489 kts | 100° |
| 2026-05-05 01:45 | 43.36197 | -19.03422 | 39338 ft | 489 kts | 100° |
| 2026-05-05 01:45 | 43.34844 | -18.94256 | 39333 ft | 490 kts | 100° |
| 2026-05-05 01:46 | 43.33481 | -18.85074 | 39324 ft | 490 kts | 100° |
| 2026-05-05 01:46 | 43.32112 | -18.75909 | 39325 ft | 490 kts | 100° |
| 2026-05-05 01:47 | 43.30742 | -18.66790 | 39326 ft | 490 kts | 100° |
| 2026-05-05 01:47 | 43.29357 | -18.57616 | 39324 ft | 490 kts | 100° |
| 2026-05-05 01:48 | 43.27963 | -18.48442 | 39316 ft | 491 kts | 100° |
| 2026-05-05 01:48 | 43.26563 | -18.39278 | 39320 ft | 491 kts | 101° |
| 2026-05-05 01:49 | 43.25154 | -18.30108 | 39317 ft | 491 kts | 101° |
| 2026-05-05 01:49 | 43.23736 | -18.20937 | 39311 ft | 492 kts | 101° |
| 2026-05-05 01:50 | 43.22311 | -18.11763 | 39310 ft | 492 kts | 101° |
| 2026-05-05 01:50 | 43.20884 | -18.02633 | 39310 ft | 492 kts | 101° |
| 2026-05-05 01:51 | 43.19443 | -17.93462 | 39299 ft | 492 kts | 101° |
| 2026-05-05 01:51 | 43.17992 | -17.84281 | 39304 ft | 492 kts | 101° |
| 2026-05-05 01:52 | 43.16533 | -17.75098 | 39297 ft | 493 kts | 101° |
| 2026-05-05 01:52 | 43.15067 | -17.65923 | 39287 ft | 493 kts | 101° |
| 2026-05-05 01:53 | 43.13601 | -17.56796 | 39301 ft | 493 kts | 101° |
| 2026-05-05 01:53 | 43.12116 | -17.47602 | 39293 ft | 493 kts | 101° |
| 2026-05-05 01:54 | 43.10635 | -17.38484 | 39290 ft | 494 kts | 101° |
| 2026-05-05 01:54 | 43.09133 | -17.29284 | 39287 ft | 494 kts | 101° |
| 2026-05-05 01:55 | 43.07626 | -17.20101 | 39281 ft | 495 kts | 101° |
| 2026-05-05 01:55 | 43.06117 | -17.10959 | 39278 ft | 495 kts | 101° |
| 2026-05-05 01:56 | 43.04591 | -17.01762 | 39277 ft | 496 kts | 101° |
| 2026-05-05 01:56 | 43.03058 | -16.92571 | 39274 ft | 496 kts | 102° |
| 2026-05-05 01:57 | 43.01514 | -16.83362 | 39272 ft | 496 kts | 102° |
| 2026-05-05 01:57 | 42.99971 | -16.74207 | 39267 ft | 497 kts | 102° |
| 2026-05-05 01:58 | 42.98412 | -16.65006 | 39270 ft | 497 kts | 102° |
| 2026-05-05 01:58 | 42.96844 | -16.55801 | 39266 ft | 497 kts | 102° |
| 2026-05-05 01:59 | 42.95269 | -16.46604 | 39264 ft | 498 kts | 102° |
| 2026-05-05 01:59 | 42.93681 | -16.37375 | 39259 ft | 498 kts | 102° |
| 2026-05-05 02:00 | 42.92095 | -16.28208 | 39255 ft | 499 kts | 102° |
| 2026-05-05 02:00 | 42.90488 | -16.18965 | 39259 ft | 500 kts | 102° |
| 2026-05-05 02:01 | 42.88885 | -16.09798 | 39260 ft | 500 kts | 102° |
| 2026-05-05 02:01 | 42.87262 | -16.00559 | 39253 ft | 501 kts | 102° |
| 2026-05-05 02:02 | 42.85630 | -15.91311 | 39250 ft | 501 kts | 102° |
| 2026-05-05 02:02 | 42.83989 | -15.82068 | 39252 ft | 502 kts | 102° |
| 2026-05-05 02:03 | 42.82350 | -15.72878 | 39240 ft | 502 kts | 102° |
| 2026-05-05 02:03 | 42.80693 | -15.63634 | 39238 ft | 502 kts | 102° |
| 2026-05-05 02:04 | 42.79025 | -15.54376 | 39241 ft | 503 kts | 102° |
| 2026-05-05 02:04 | 42.77350 | -15.45121 | 39237 ft | 503 kts | 102° |
| 2026-05-05 02:05 | 42.75665 | -15.35866 | 39236 ft | 504 kts | 102° |
| 2026-05-05 02:05 | 42.73982 | -15.26658 | 39236 ft | 504 kts | 102° |
| 2026-05-05 02:06 | 42.72278 | -15.17388 | 39225 ft | 505 kts | 102° |
| 2026-05-05 02:06 | 42.70563 | -15.08102 | 39226 ft | 505 kts | 102° |
| 2026-05-05 02:07 | 42.68853 | -14.98884 | 39222 ft | 506 kts | 102° |
| 2026-05-05 02:07 | 42.67124 | -14.89612 | 39224 ft | 506 kts | 102° |
| 2026-05-05 02:08 | 42.65384 | -14.80325 | 39219 ft | 507 kts | 102° |
| 2026-05-05 02:08 | 42.63636 | -14.71041 | 39216 ft | 507 kts | 102° |
| 2026-05-05 02:09 | 42.61879 | -14.61756 | 39214 ft | 508 kts | 102° |
| 2026-05-05 02:09 | 42.60126 | -14.52529 | 39212 ft | 508 kts | 102° |
| 2026-05-05 02:10 | 42.58354 | -14.43249 | 39208 ft | 508 kts | 103° |
| 2026-05-05 02:10 | 42.56570 | -14.33947 | 39200 ft | 509 kts | 103° |
| 2026-05-05 02:11 | 42.54779 | -14.24654 | 39202 ft | 509 kts | 103° |
| 2026-05-05 02:11 | 42.52992 | -14.15414 | 39198 ft | 509 kts | 103° |
| 2026-05-05 02:12 | 42.50282 | -14.01470 | 39197 ft | 509 kts | 102° |
| 2026-05-05 02:13 | 42.48868 | -13.92099 | 39204 ft | 507 kts | 98° |
| 2026-05-05 02:13 | 42.47653 | -13.82676 | 39196 ft | 508 kts | 97° |
| 2026-05-05 02:14 | 42.46436 | -13.73249 | 39185 ft | 508 kts | 98° |
| 2026-05-05 02:14 | 42.45191 | -13.63833 | 39188 ft | 508 kts | 98° |
| 2026-05-05 02:15 | 42.43933 | -13.54474 | 39181 ft | 508 kts | 98° |
| 2026-05-05 02:15 | 42.42657 | -13.45055 | 39182 ft | 508 kts | 98° |
| 2026-05-05 02:16 | 42.41374 | -13.35642 | 39174 ft | 508 kts | 98° |
| 2026-05-05 02:16 | 42.40096 | -13.26307 | 39171 ft | 507 kts | 98° |
| 2026-05-05 02:17 | 42.38800 | -13.16909 | 39176 ft | 507 kts | 98° |
| 2026-05-05 02:17 | 42.37496 | -13.07510 | 39169 ft | 507 kts | 98° |
| 2026-05-05 02:18 | 42.36187 | -12.98130 | 39164 ft | 508 kts | 99° |
| 2026-05-05 02:18 | 42.34876 | -12.88798 | 39159 ft | 508 kts | 99° |
| 2026-05-05 02:19 | 42.33549 | -12.79411 | 39158 ft | 508 kts | 99° |
| 2026-05-05 02:19 | 42.32215 | -12.70029 | 39159 ft | 508 kts | 99° |
| 2026-05-05 02:20 | 42.30871 | -12.60639 | 39153 ft | 509 kts | 99° |
| 2026-05-05 02:20 | 42.29520 | -12.51253 | 39147 ft | 509 kts | 99° |
| 2026-05-05 02:21 | 42.28160 | -12.41865 | 39141 ft | 509 kts | 99° |
| 2026-05-05 02:21 | 42.26801 | -12.32537 | 39143 ft | 510 kts | 99° |
| 2026-05-05 02:22 | 42.25424 | -12.23145 | 39142 ft | 510 kts | 100° |
| 2026-05-05 02:22 | 42.24037 | -12.13742 | 39137 ft | 510 kts | 100° |
| 2026-05-05 02:23 | 42.22640 | -12.04325 | 39137 ft | 511 kts | 100° |
| 2026-05-05 02:23 | 42.21238 | -11.94932 | 39128 ft | 511 kts | 100° |
| 2026-05-05 02:24 | 42.19837 | -11.85601 | 39127 ft | 511 kts | 100° |
| 2026-05-05 02:24 | 42.18418 | -11.76199 | 39124 ft | 511 kts | 101° |
| 2026-05-05 02:25 | 42.16988 | -11.66789 | 39122 ft | 512 kts | 101° |
| 2026-05-05 02:25 | 42.15551 | -11.57380 | 39119 ft | 512 kts | 101° |
| 2026-05-05 02:26 | 42.14106 | -11.47978 | 39117 ft | 512 kts | 101° |
| 2026-05-05 02:26 | 42.12664 | -11.38641 | 39116 ft | 513 kts | 101° |
| 2026-05-05 02:27 | 42.11202 | -11.29235 | 39108 ft | 513 kts | 101° |
| 2026-05-05 02:27 | 42.09746 | -11.19919 | 39107 ft | 513 kts | 101° |
| 2026-05-05 02:28 | 42.08265 | -11.10500 | 39107 ft | 514 kts | 101° |
| 2026-05-05 02:28 | 42.06776 | -11.01075 | 39105 ft | 514 kts | 102° |
| 2026-05-05 02:29 | 42.05287 | -10.91710 | 39104 ft | 515 kts | 102° |
| 2026-05-05 02:29 | 42.03781 | -10.82285 | 39104 ft | 515 kts | 102° |
| 2026-05-05 02:30 | 42.02266 | -10.72857 | 39103 ft | 516 kts | 102° |
| 2026-05-05 02:30 | 42.00742 | -10.63422 | 39097 ft | 516 kts | 102° |
| 2026-05-05 02:31 | 41.99210 | -10.53989 | 39099 ft | 516 kts | 102° |
| 2026-05-05 02:31 | 41.97670 | -10.44558 | 39095 ft | 517 kts | 102° |
| 2026-05-05 02:32 | 41.96132 | -10.35171 | 39095 ft | 517 kts | 102° |
| 2026-05-05 02:32 | 41.94578 | -10.25733 | 39095 ft | 517 kts | 103° |
| 2026-05-05 02:33 | 41.93376 | -10.17793 | 39091 ft | 517 kts | 98° |
| 2026-05-05 02:33 | 41.92404 | -10.08214 | 39098 ft | 518 kts | 97° |
| 2026-05-05 02:34 | 41.91497 | -9.98680 | 39091 ft | 518 kts | 97° |
| 2026-05-05 02:34 | 41.90559 | -9.89067 | 39095 ft | 519 kts | 97° |
| 2026-05-05 02:35 | 41.89591 | -9.79452 | 39086 ft | 519 kts | 98° |
| 2026-05-05 02:35 | 41.88612 | -9.69884 | 39090 ft | 519 kts | 98° |
| 2026-05-05 02:36 | 41.87620 | -9.60266 | 39086 ft | 520 kts | 98° |
| 2026-05-05 02:36 | 41.86623 | -9.50661 | 39094 ft | 520 kts | 98° |
| 2026-05-05 02:37 | 41.85616 | -9.41045 | 39094 ft | 520 kts | 98° |
| 2026-05-05 02:37 | 41.84610 | -9.31500 | 39091 ft | 520 kts | 98° |
| 2026-05-05 02:38 | 41.83587 | -9.21883 | 39090 ft | 520 kts | 98° |
| 2026-05-05 02:38 | 41.82556 | -9.12275 | 39092 ft | 520 kts | 98° |
| 2026-05-05 02:39 | 41.81516 | -9.02654 | 39088 ft | 521 kts | 98° |
| 2026-05-05 02:39 | 41.80469 | -8.93049 | 39088 ft | 521 kts | 99° |
| 2026-05-05 02:40 | 41.79417 | -8.83471 | 39096 ft | 522 kts | 99° |
| 2026-05-05 02:40 | 41.78350 | -8.73828 | 39096 ft | 522 kts | 99° |
| 2026-05-05 02:41 | 41.77275 | -8.64198 | 39099 ft | 523 kts | 99° |
| 2026-05-05 02:41 | 41.76189 | -8.54540 | 39099 ft | 523 kts | 99° |
| 2026-05-05 02:42 | 41.75104 | -8.44970 | 39108 ft | 523 kts | 99° |
| 2026-05-05 02:42 | 41.74003 | -8.35322 | 39098 ft | 523 kts | 99° |
| 2026-05-05 02:43 | 41.72891 | -8.25663 | 39108 ft | 524 kts | 99° |
| 2026-05-05 02:43 | 41.71779 | -8.16075 | 39112 ft | 525 kts | 99° |
| 2026-05-05 02:44 | 41.70650 | -8.06406 | 39099 ft | 525 kts | 99° |
| 2026-05-05 02:44 | 41.69512 | -7.96734 | 39109 ft | 525 kts | 99° |
| 2026-05-05 02:45 | 41.68362 | -7.87048 | 39104 ft | 526 kts | 99° |
| 2026-05-05 02:45 | 41.67217 | -7.77460 | 39111 ft | 525 kts | 99° |
| 2026-05-05 02:46 | 41.66054 | -7.67795 | 39103 ft | 525 kts | 100° |
| 2026-05-05 02:46 | 41.64887 | -7.58164 | 39094 ft | 525 kts | 100° |
| 2026-05-05 02:47 | 41.63712 | -7.48536 | 39106 ft | 525 kts | 100° |
| 2026-05-05 02:47 | 41.62526 | -7.38893 | 39089 ft | 524 kts | 100° |
| 2026-05-05 02:48 | 41.61336 | -7.29282 | 39100 ft | 524 kts | 100° |
| 2026-05-05 02:48 | 41.60145 | -7.19731 | 39099 ft | 524 kts | 100° |
| 2026-05-05 02:49 | 41.58937 | -7.10112 | 39096 ft | 524 kts | 100° |
| 2026-05-05 02:49 | 41.57722 | -7.00506 | 39089 ft | 524 kts | 100° |
| 2026-05-05 02:50 | 41.56500 | -6.90904 | 39089 ft | 524 kts | 101° |
| 2026-05-05 02:50 | 41.55271 | -6.81320 | 39083 ft | 523 kts | 101° |
| 2026-05-05 02:51 | 41.54041 | -6.71783 | 39080 ft | 523 kts | 101° |
| 2026-05-05 02:51 | 41.52800 | -6.62223 | 39085 ft | 523 kts | 101° |
| 2026-05-05 02:52 | 41.51551 | -6.52662 | 39081 ft | 523 kts | 101° |
| 2026-05-05 02:52 | 41.50299 | -6.43110 | 39079 ft | 523 kts | 101° |
| 2026-05-05 02:53 | 41.49047 | -6.33560 | 39075 ft | 522 kts | 99° |
| 2026-05-05 02:53 | 41.48587 | -6.23900 | 39078 ft | 522 kts | 89° |
| 2026-05-05 02:54 | 41.49216 | -6.14257 | 39073 ft | 522 kts | 83° |
| 2026-05-05 02:54 | 41.50009 | -6.04690 | 39079 ft | 522 kts | 84° |
| 2026-05-05 02:55 | 41.50753 | -5.95050 | 39064 ft | 522 kts | 84° |
| 2026-05-05 02:55 | 41.51458 | -5.85396 | 39067 ft | 522 kts | 84° |
| 2026-05-05 02:56 | 41.52158 | -5.75741 | 39058 ft | 523 kts | 84° |
| 2026-05-05 02:56 | 41.52186 | -5.66078 | 39067 ft | 521 kts | 103° |
| 2026-05-05 02:56 | 41.51211 | -5.61448 | 39073 ft | 518 kts | 114° |
| 2026-05-05 02:57 | 41.49664 | -5.57189 | 39060 ft | 514 kts | 126° |
| 2026-05-05 02:57 | 41.45562 | -5.49469 | 39066 ft | 511 kts | 129° |
| 2026-05-05 02:58 | 41.41420 | -5.41731 | 39057 ft | 513 kts | 128° |
| 2026-05-05 02:58 | 41.39368 | -5.37844 | 38943 ft | 516 kts | 128° |
| 2026-05-05 02:58 | 41.37293 | -5.33891 | 38157 ft | 523 kts | 128° |
| 2026-05-05 02:58 | 41.35223 | -5.29926 | 37423 ft | 520 kts | 128° |
| 2026-05-05 02:59 | 41.33167 | -5.25979 | 36669 ft | 518 kts | 129° |
| 2026-05-05 02:59 | 41.31118 | -5.22050 | 35944 ft | 517 kts | 129° |
| 2026-05-05 02:59 | 41.29057 | -5.18108 | 35115 ft | 517 kts | 129° |
| 2026-05-05 02:59 | 41.26995 | -5.14176 | 34237 ft | 519 kts | 130° |
| 2026-05-05 03:00 | 41.24949 | -5.10283 | 33197 ft | 522 kts | 130° |
| 2026-05-05 03:00 | 41.22866 | -5.06327 | 32158 ft | 524 kts | 130° |
| 2026-05-05 03:00 | 41.20781 | -5.02368 | 31498 ft | 519 kts | 131° |
| 2026-05-05 03:00 | 41.18717 | -4.98447 | 30835 ft | 515 kts | 131° |
| 2026-05-05 03:01 | 41.16663 | -4.94553 | 30177 ft | 511 kts | 131° |
| 2026-05-05 03:01 | 41.14624 | -4.90698 | 29409 ft | 508 kts | 131° |
| 2026-05-05 03:01 | 41.12631 | -4.86934 | 28667 ft | 504 kts | 131° |
| 2026-05-05 03:01 | 41.10623 | -4.83148 | 27955 ft | 499 kts | 131° |
| 2026-05-05 03:02 | 41.08631 | -4.79395 | 27241 ft | 495 kts | 131° |
| 2026-05-05 03:02 | 41.06656 | -4.75679 | 26538 ft | 490 kts | 131° |
| 2026-05-05 03:02 | 41.04702 | -4.72008 | 25843 ft | 486 kts | 131° |
| 2026-05-05 03:02 | 41.02755 | -4.68355 | 25129 ft | 482 kts | 131° |
| 2026-05-05 03:03 | 41.00826 | -4.64739 | 24451 ft | 478 kts | 131° |
| 2026-05-05 03:03 | 40.98915 | -4.61162 | 23774 ft | 474 kts | 131° |
| 2026-05-05 03:03 | 40.97018 | -4.57614 | 22990 ft | 470 kts | 130° |
| 2026-05-05 03:03 | 40.95136 | -4.54098 | 22243 ft | 465 kts | 130° |
| 2026-05-05 03:04 | 40.93301 | -4.50672 | 21567 ft | 459 kts | 130° |
| 2026-05-05 03:04 | 40.91464 | -4.47247 | 20893 ft | 454 kts | 130° |
| 2026-05-05 03:04 | 40.89640 | -4.43851 | 20210 ft | 450 kts | 130° |
| 2026-05-05 03:04 | 40.87838 | -4.40498 | 19554 ft | 445 kts | 130° |
| 2026-05-05 03:05 | 40.86047 | -4.37171 | 18904 ft | 441 kts | 130° |
| 2026-05-05 03:05 | 40.84273 | -4.33879 | 18247 ft | 437 kts | 130° |
| 2026-05-05 03:05 | 40.82517 | -4.30624 | 17533 ft | 433 kts | 130° |
| 2026-05-05 03:05 | 40.80780 | -4.27409 | 16861 ft | 428 kts | 129° |
| 2026-05-05 03:06 | 40.79056 | -4.24219 | 16228 ft | 424 kts | 129° |
| 2026-05-05 03:06 | 40.77369 | -4.21102 | 15620 ft | 421 kts | 129° |
| 2026-05-05 03:06 | 40.75677 | -4.17978 | 14998 ft | 417 kts | 129° |
| 2026-05-05 03:06 | 40.73991 | -4.14869 | 14387 ft | 414 kts | 129° |
| 2026-05-05 03:07 | 40.72321 | -4.11792 | 13781 ft | 412 kts | 128° |
| 2026-05-05 03:07 | 40.70658 | -4.08729 | 13151 ft | 408 kts | 128° |
| 2026-05-05 03:07 | 40.69013 | -4.05703 | 12562 ft | 404 kts | 128° |
| 2026-05-05 03:07 | 40.67384 | -4.02709 | 12003 ft | 399 kts | 128° |
| 2026-05-05 03:08 | 40.65776 | -3.99756 | 11498 ft | 393 kts | 128° |
| 2026-05-05 03:08 | 40.64198 | -3.96861 | 11030 ft | 384 kts | 128° |
| 2026-05-05 03:08 | 40.62663 | -3.94044 | 10797 ft | 371 kts | 128° |
| 2026-05-05 03:08 | 40.61204 | -3.91371 | 10698 ft | 356 kts | 128° |
| 2026-05-05 03:09 | 40.59788 | -3.88777 | 10608 ft | 342 kts | 129° |
| 2026-05-05 03:09 | 40.58428 | -3.86291 | 10508 ft | 328 kts | 129° |
| 2026-05-05 03:09 | 40.57108 | -3.83916 | 10411 ft | 312 kts | 133° |
| 2026-05-05 03:09 | 40.55665 | -3.81881 | 10307 ft | 298 kts | 139° |
| 2026-05-05 03:10 | 40.54196 | -3.80025 | 10196 ft | 288 kts | 140° |
| 2026-05-05 03:10 | 40.52751 | -3.78233 | 9995 ft | 282 kts | 140° |
| 2026-05-05 03:10 | 40.51326 | -3.76484 | 9705 ft | 279 kts | 140° |
| 2026-05-05 03:10 | 40.49900 | -3.74747 | 9350 ft | 279 kts | 140° |
| 2026-05-05 03:11 | 40.48474 | -3.73024 | 8998 ft | 278 kts | 140° |
| 2026-05-05 03:11 | 40.47048 | -3.71312 | 8662 ft | 277 kts | 140° |
| 2026-05-05 03:11 | 40.45646 | -3.69639 | 8360 ft | 275 kts | 140° |
| 2026-05-05 03:11 | 40.44230 | -3.67958 | 8045 ft | 274 kts | 140° |
| 2026-05-05 03:12 | 40.42820 | -3.66294 | 7734 ft | 272 kts | 140° |
| 2026-05-05 03:12 | 40.41407 | -3.64638 | 7420 ft | 271 kts | 140° |
| 2026-05-05 03:12 | 40.40002 | -3.62999 | 7127 ft | 269 kts | 141° |
| 2026-05-05 03:12 | 40.38624 | -3.61397 | 7039 ft | 259 kts | 141° |
| 2026-05-05 03:13 | 40.37296 | -3.59855 | 6971 ft | 252 kts | 140° |
| 2026-05-05 03:13 | 40.35967 | -3.58340 | 6968 ft | 252 kts | 141° |
| 2026-05-05 03:13 | 40.34638 | -3.56835 | 6961 ft | 252 kts | 141° |
| 2026-05-05 03:13 | 40.33310 | -3.55335 | 6953 ft | 252 kts | 141° |
| 2026-05-05 03:14 | 40.31984 | -3.53839 | 6936 ft | 251 kts | 141° |
| 2026-05-05 03:14 | 40.30676 | -3.52364 | 6929 ft | 251 kts | 141° |
| 2026-05-05 03:14 | 40.29349 | -3.50866 | 6858 ft | 254 kts | 141° |
| 2026-05-05 03:14 | 40.28002 | -3.49344 | 6667 ft | 257 kts | 141° |
| 2026-05-05 03:15 | 40.26684 | -3.47828 | 6619 ft | 245 kts | 141° |
| 2026-05-05 03:15 | 40.25463 | -3.46370 | 6559 ft | 229 kts | 133° |
| 2026-05-05 03:15 | 40.24783 | -3.44573 | 6535 ft | 220 kts | 98° |
| 2026-05-05 03:15 | 40.24980 | -3.42626 | 6525 ft | 217 kts | 63° |
| 2026-05-05 03:16 | 40.25871 | -3.41052 | 6545 ft | 217 kts | 46° |
| 2026-05-05 03:16 | 40.26930 | -3.39619 | 6548 ft | 220 kts | 44° |
| 2026-05-05 03:16 | 40.28021 | -3.38199 | 6548 ft | 220 kts | 39° |
| 2026-05-05 03:16 | 40.29346 | -3.37324 | 6530 ft | 213 kts | 6° |
| 2026-05-05 03:17 | 40.30810 | -3.37257 | 6553 ft | 210 kts | 356° |
| 2026-05-05 03:17 | 40.32283 | -3.37342 | 6467 ft | 215 kts | 355° |
| 2026-05-05 03:17 | 40.33735 | -3.37463 | 6398 ft | 198 kts | 349° |
| 2026-05-05 03:17 | 40.34950 | -3.38151 | 6560 ft | 189 kts | 321° |
| 2026-05-05 03:18 | 40.35857 | -3.39394 | 6227 ft | 187 kts | 307° |
| 2026-05-05 03:18 | 40.36604 | -3.40697 | 6019 ft | 166 kts | 306° |
| 2026-05-05 03:18 | 40.37261 | -3.41834 | 5788 ft | 151 kts | 306° |
| 2026-05-05 03:18 | 40.37884 | -3.42917 | 5428 ft | 151 kts | 307° |
| 2026-05-05 03:19 | 40.39240 | -3.45062 | 4768 ft | 149 kts | 314° |
| 2026-05-05 03:19 | 40.39949 | -3.46004 | 4393 ft | 141 kts | 316° |
| 2026-05-05 03:19 | 40.40664 | -3.46843 | 4060 ft | 134 kts | 321° |
| 2026-05-05 03:20 | 40.41137 | -3.47329 | 3945 ft | 127 kts | 323° |
| 2026-05-05 03:20 | 40.41876 | -3.48038 | 3790 ft | 135 kts | 325° |
| 2026-05-05 03:20 | 40.42650 | -3.48764 | 3530 ft | 138 kts | 322° |
| 2026-05-05 03:20 | 40.43610 | -3.49854 | 3144 ft | 136 kts | 320° |
| 2026-05-05 03:21 | 40.44353 | -3.50622 | 2856 ft | 137 kts | 324° |
| 2026-05-05 03:21 | 40.44863 | -3.51123 | 2683 ft | 134 kts | 324° |
| 2026-05-05 03:21 | 40.45599 | -3.51878 | 2396 ft | 133 kts | 323° |
| 2026-05-05 03:21 | 40.46333 | -3.52593 | 2201 ft | 132 kts | 324° |
| 2026-05-05 03:22 | 40.47060 | -3.53324 | 2048 ft | 131 kts | 323° |
| 2026-05-05 03:22 | 40.47774 | -3.54048 | 1936 ft | 121 kts | 323° |
| 2026-05-05 03:22 | 40.48354 | -3.54639 | 1940 ft | 86 kts | 321° |
| 2026-05-05 03:22 | 40.48705 | -3.54995 | 1953 ft | 41 kts | 322° |
| 2026-05-05 03:23 | 40.48786 | -3.55162 | 1956 ft | 13 kts | 291° |
| 2026-05-05 03:23 | 40.48815 | -3.55258 | 1956 ft | 10 kts | 291° |
| 2026-05-05 03:23 | 40.48837 | -3.55334 | 1956 ft | 8 kts | 291° |
| 2026-05-05 03:23 | 40.48854 | -3.55388 | 1959 ft | 5 kts | 293° |
| 2026-05-05 03:24 | 40.48864 | -3.55413 | 1956 ft | 1 kts | 299° |
| 2026-05-05 03:24 | 40.48898 | -3.55467 | 1957 ft | 14 kts | 317° |
| 2026-05-05 03:24 | 40.48978 | -3.55553 | 1958 ft | 17 kts | 321° |
| 2026-05-05 03:24 | 40.49078 | -3.55653 | 1960 ft | 19 kts | 323° |
| 2026-05-05 03:25 | 40.49182 | -3.55758 | 1964 ft | 19 kts | 322° |
| 2026-05-05 03:25 | 40.49286 | -3.55863 | 1964 ft | 19 kts | 322° |
| 2026-05-05 03:25 | 40.49390 | -3.55968 | 1964 ft | 19 kts | 322° |
| 2026-05-05 03:25 | 40.49493 | -3.56074 | 1964 ft | 19 kts | 322° |
| 2026-05-05 03:26 | 40.49556 | -3.56214 | 1965 ft | 19 kts | 278° |
| 2026-05-05 03:26 | 40.49548 | -3.56385 | 1974 ft | 19 kts | 267° |
| 2026-05-05 03:26 | 40.49621 | -3.56451 | 1975 ft | 14 kts | 359° |
| 2026-05-05 03:26 | 40.49716 | -3.56452 | 1971 ft | 14 kts | 359° |
| 2026-05-05 03:27 | 40.49751 | -3.56452 | 1971 ft | 0 kts | 359° |
| 2026-05-05 03:28 | 40.49767 | -3.56453 | 1973 ft | 11 kts | 358° |
| 2026-05-05 03:29 | 40.49808 | -3.56519 | 1975 ft | 8 kts | 253° |
| 2026-05-05 03:29 | 40.49758 | -3.56546 | 1979 ft | 8 kts | 182° |
| 2026-05-05 03:29 | 40.49687 | -3.56546 | 1977 ft | 12 kts | 180° |
| 2026-05-05 03:29 | 40.49604 | -3.56546 | 1975 ft | 12 kts | 180° |
| 2026-05-05 03:30 | 40.49521 | -3.56546 | 1978 ft | 12 kts | 178° |
| 2026-05-05 03:30 | 40.49438 | -3.56544 | 1978 ft | 12 kts | 179° |
| 2026-05-05 03:30 | 40.49367 | -3.56544 | 1974 ft | 6 kts | 180° |
| 2026-05-05 03:30 | 40.49325 | -3.56544 | 1974 ft | 6 kts | 180° |
| 2026-05-05 03:31 | 40.49278 | -3.56544 | 1974 ft | 8 kts | 180° |
| 2026-05-05 03:31 | 40.49205 | -3.56544 | 1974 ft | 13 kts | 180° |
| 2026-05-05 03:31 | 40.49149 | -3.56568 | 1977 ft | 6 kts | 239° |
| 2026-05-05 03:31 | 40.49145 | -3.56605 | 1978 ft | 1 kts | 267° |
| 2026-05-05 03:32 | 40.49145 | -3.56611 | 1977 ft | 1 kts | 268° |
| 2026-05-05 03:32 | 40.49145 | -3.56617 | 1977 ft | 1 kts | 269° |
| 2026-05-05 03:32 | 40.49144 | -3.56623 | 1978 ft | 1 kts | 269° |
| 2026-05-05 03:32 | 40.49144 | -3.56630 | 1977 ft | 1 kts | 269° |
| 2026-05-05 03:33 | 40.49144 | -3.56637 | 1977 ft | 1 kts | 269° |
| 2026-05-05 03:33 | 40.49144 | -3.56643 | 1976 ft | 1 kts | 269° |
| 2026-05-05 03:33 | 40.49144 | -3.56650 | 1976 ft | 1 kts | 269° |
| 2026-05-05 03:33 | 40.49144 | -3.56651 | 1976 ft | 0 kts | 269° |